<?xml version="1.0" encoding="UTF-8" standalone="no" ?>
<gpx xmlns="http://www.topografix.com/GPX/1/1" xmlns:xsi="http://www.w3.org/2001/XMLSchema-instance" xsi:schemaLocation="http://www.topografix.com/GPX/1/1 http://www.topografix.com/GPX/1/1/gpx.xsd" version="1.1" creator="VisuGPX - https://www.visugpx.com">
  <metadata>
    <name>Revel-St mury-Revel </name>
    <desc><![CDATA[File with points/tracks from Locus Map/4.2.1]]></desc>
  </metadata>
  <trk>
    <name><![CDATA[2021-07-03 10:37:15]]></name>
    <desc><![CDATA[St mu]]></desc>
    <extensions>
      <line xmlns="http://www.topografix.com/GPX/gpx_style/0/2">
        <color>0000FF</color>
        <opacity>0.59</opacity>
        <width>6.0</width>
      </line>
    </extensions>
    <trkseg>
      <trkpt lat="45.18385" lon="5.874">
        <ele>700.91</ele>
        <time>2021-07-03T08:37:15.000Z</time>
      </trkpt>
      <trkpt lat="45.18388" lon="5.87379">
        <ele>692.87</ele>
        <time>2021-07-03T08:37:44.000Z</time>
      </trkpt>
      <trkpt lat="45.18389" lon="5.87357">
        <ele>690.36</ele>
        <time>2021-07-03T08:37:49.000Z</time>
      </trkpt>
      <trkpt lat="45.18386" lon="5.87327">
        <ele>685.84</ele>
        <time>2021-07-03T08:37:54.000Z</time>
      </trkpt>
      <trkpt lat="45.18389" lon="5.87313">
        <ele>685.66</ele>
        <time>2021-07-03T08:37:59.000Z</time>
      </trkpt>
      <trkpt lat="45.18386" lon="5.87298">
        <ele>689.04</ele>
        <time>2021-07-03T08:38:22.000Z</time>
      </trkpt>
      <trkpt lat="45.18385" lon="5.87268">
        <ele>686.61</ele>
        <time>2021-07-03T08:38:27.000Z</time>
      </trkpt>
      <trkpt lat="45.18402" lon="5.87239">
        <ele>685.45</ele>
        <time>2021-07-03T08:38:32.000Z</time>
      </trkpt>
      <trkpt lat="45.18421" lon="5.8721">
        <ele>681.31</ele>
        <time>2021-07-03T08:38:37.000Z</time>
      </trkpt>
      <trkpt lat="45.1844" lon="5.87185">
        <ele>678.83</ele>
        <time>2021-07-03T08:38:42.000Z</time>
      </trkpt>
      <trkpt lat="45.18435" lon="5.87169">
        <ele>678.88</ele>
        <time>2021-07-03T08:38:47.000Z</time>
      </trkpt>
      <trkpt lat="45.18411" lon="5.87145">
        <ele>676.13</ele>
        <time>2021-07-03T08:38:52.000Z</time>
      </trkpt>
      <trkpt lat="45.18444" lon="5.8711">
        <ele>671.68</ele>
        <time>2021-07-03T08:38:57.000Z</time>
      </trkpt>
      <trkpt lat="45.18482" lon="5.87092">
        <ele>669.68</ele>
        <time>2021-07-03T08:39:02.000Z</time>
      </trkpt>
      <trkpt lat="45.1851" lon="5.87064">
        <ele>665.57</ele>
        <time>2021-07-03T08:39:07.000Z</time>
      </trkpt>
      <trkpt lat="45.18551" lon="5.87049">
        <ele>663.67</ele>
        <time>2021-07-03T08:39:12.000Z</time>
      </trkpt>
      <trkpt lat="45.18589" lon="5.8701">
        <ele>658.45</ele>
        <time>2021-07-03T08:39:17.000Z</time>
      </trkpt>
      <trkpt lat="45.18597" lon="5.86958">
        <ele>655.01</ele>
        <time>2021-07-03T08:39:22.000Z</time>
      </trkpt>
      <trkpt lat="45.18596" lon="5.869">
        <ele>650.61</ele>
        <time>2021-07-03T08:39:27.000Z</time>
      </trkpt>
      <trkpt lat="45.18579" lon="5.86872">
        <ele>646.17</ele>
        <time>2021-07-03T08:39:32.000Z</time>
      </trkpt>
      <trkpt lat="45.18598" lon="5.8687">
        <ele>646.94</ele>
        <time>2021-07-03T08:39:37.000Z</time>
      </trkpt>
      <trkpt lat="45.18612" lon="5.86905">
        <ele>643.66</ele>
        <time>2021-07-03T08:39:42.000Z</time>
      </trkpt>
      <trkpt lat="45.18644" lon="5.86925">
        <ele>637.56</ele>
        <time>2021-07-03T08:39:47.000Z</time>
      </trkpt>
      <trkpt lat="45.1867" lon="5.86873">
        <ele>633.04</ele>
        <time>2021-07-03T08:39:52.000Z</time>
      </trkpt>
      <trkpt lat="45.18693" lon="5.86798">
        <ele>627.91</ele>
        <time>2021-07-03T08:39:57.000Z</time>
      </trkpt>
      <trkpt lat="45.18729" lon="5.86726">
        <ele>621.93</ele>
        <time>2021-07-03T08:40:02.000Z</time>
      </trkpt>
      <trkpt lat="45.1878" lon="5.86663">
        <ele>617.03</ele>
        <time>2021-07-03T08:40:07.000Z</time>
      </trkpt>
      <trkpt lat="45.188" lon="5.86572">
        <ele>613.31</ele>
        <time>2021-07-03T08:40:12.000Z</time>
      </trkpt>
      <trkpt lat="45.18779" lon="5.86485">
        <ele>603.88</ele>
        <time>2021-07-03T08:40:17.000Z</time>
      </trkpt>
      <trkpt lat="45.1881" lon="5.8645">
        <ele>602.32</ele>
        <time>2021-07-03T08:40:22.000Z</time>
      </trkpt>
      <trkpt lat="45.1886" lon="5.86419">
        <ele>600.11</ele>
        <time>2021-07-03T08:40:27.000Z</time>
      </trkpt>
      <trkpt lat="45.18897" lon="5.86352">
        <ele>591.3</ele>
        <time>2021-07-03T08:40:32.000Z</time>
      </trkpt>
      <trkpt lat="45.18919" lon="5.86265">
        <ele>584.29</ele>
        <time>2021-07-03T08:40:37.000Z</time>
      </trkpt>
      <trkpt lat="45.18936" lon="5.86173">
        <ele>581.16</ele>
        <time>2021-07-03T08:40:42.000Z</time>
      </trkpt>
      <trkpt lat="45.18947" lon="5.86069">
        <ele>574.44</ele>
        <time>2021-07-03T08:40:47.000Z</time>
      </trkpt>
      <trkpt lat="45.18966" lon="5.8596">
        <ele>572.94</ele>
        <time>2021-07-03T08:40:52.000Z</time>
      </trkpt>
      <trkpt lat="45.18962" lon="5.85846">
        <ele>572.18</ele>
        <time>2021-07-03T08:40:57.000Z</time>
      </trkpt>
      <trkpt lat="45.18953" lon="5.8573">
        <ele>564.05</ele>
        <time>2021-07-03T08:41:02.000Z</time>
      </trkpt>
      <trkpt lat="45.18949" lon="5.85641">
        <ele>555.07</ele>
        <time>2021-07-03T08:41:07.000Z</time>
      </trkpt>
      <trkpt lat="45.18977" lon="5.85564">
        <ele>550.5</ele>
        <time>2021-07-03T08:41:12.000Z</time>
      </trkpt>
      <trkpt lat="45.19027" lon="5.85504">
        <ele>547.93</ele>
        <time>2021-07-03T08:41:17.000Z</time>
      </trkpt>
      <trkpt lat="45.19101" lon="5.85447">
        <ele>545.54</ele>
        <time>2021-07-03T08:41:22.000Z</time>
      </trkpt>
      <trkpt lat="45.19163" lon="5.85394">
        <ele>535.37</ele>
        <time>2021-07-03T08:41:27.000Z</time>
      </trkpt>
      <trkpt lat="45.19229" lon="5.8536">
        <ele>528.8</ele>
        <time>2021-07-03T08:41:32.000Z</time>
      </trkpt>
      <trkpt lat="45.19284" lon="5.85342">
        <ele>520.9</ele>
        <time>2021-07-03T08:41:37.000Z</time>
      </trkpt>
      <trkpt lat="45.19325" lon="5.85325">
        <ele>520.38</ele>
        <time>2021-07-03T08:41:42.000Z</time>
      </trkpt>
      <trkpt lat="45.19353" lon="5.85358">
        <ele>515</ele>
        <time>2021-07-03T08:41:47.000Z</time>
      </trkpt>
      <trkpt lat="45.19377" lon="5.85362">
        <ele>510.84</ele>
        <time>2021-07-03T08:41:52.000Z</time>
      </trkpt>
      <trkpt lat="45.19383" lon="5.85305">
        <ele>510.61</ele>
        <time>2021-07-03T08:41:57.000Z</time>
      </trkpt>
      <trkpt lat="45.19385" lon="5.85227">
        <ele>507.97</ele>
        <time>2021-07-03T08:42:02.000Z</time>
      </trkpt>
      <trkpt lat="45.1942" lon="5.85171">
        <ele>499.97</ele>
        <time>2021-07-03T08:42:07.000Z</time>
      </trkpt>
      <trkpt lat="45.19475" lon="5.85181">
        <ele>492.96</ele>
        <time>2021-07-03T08:42:12.000Z</time>
      </trkpt>
      <trkpt lat="45.19482" lon="5.8509">
        <ele>488.86</ele>
        <time>2021-07-03T08:42:17.000Z</time>
      </trkpt>
      <trkpt lat="45.19527" lon="5.85018">
        <ele>480.76</ele>
        <time>2021-07-03T08:42:22.000Z</time>
      </trkpt>
      <trkpt lat="45.1959" lon="5.84969">
        <ele>477.14</ele>
        <time>2021-07-03T08:42:27.000Z</time>
      </trkpt>
      <trkpt lat="45.19651" lon="5.84916">
        <ele>472.69</ele>
        <time>2021-07-03T08:42:32.000Z</time>
      </trkpt>
      <trkpt lat="45.19709" lon="5.8485">
        <ele>469.52</ele>
        <time>2021-07-03T08:42:37.000Z</time>
      </trkpt>
      <trkpt lat="45.19781" lon="5.84794">
        <ele>466.57</ele>
        <time>2021-07-03T08:42:42.000Z</time>
      </trkpt>
      <trkpt lat="45.19844" lon="5.84765">
        <ele>461.27</ele>
        <time>2021-07-03T08:42:47.000Z</time>
      </trkpt>
      <trkpt lat="45.19885" lon="5.84759">
        <ele>453.17</ele>
        <time>2021-07-03T08:42:52.000Z</time>
      </trkpt>
      <trkpt lat="45.19863" lon="5.84695">
        <ele>448.4</ele>
        <time>2021-07-03T08:42:57.000Z</time>
      </trkpt>
      <trkpt lat="45.19897" lon="5.8462">
        <ele>439.71</ele>
        <time>2021-07-03T08:43:02.000Z</time>
      </trkpt>
      <trkpt lat="45.19943" lon="5.84551">
        <ele>431.76</ele>
        <time>2021-07-03T08:43:07.000Z</time>
      </trkpt>
      <trkpt lat="45.19987" lon="5.84478">
        <ele>427.04</ele>
        <time>2021-07-03T08:43:12.000Z</time>
      </trkpt>
      <trkpt lat="45.20055" lon="5.84458">
        <ele>425.24</ele>
        <time>2021-07-03T08:43:17.000Z</time>
      </trkpt>
      <trkpt lat="45.20121" lon="5.84473">
        <ele>418.43</ele>
        <time>2021-07-03T08:43:22.000Z</time>
      </trkpt>
      <trkpt lat="45.20156" lon="5.84573">
        <ele>407.27</ele>
        <time>2021-07-03T08:43:27.000Z</time>
      </trkpt>
      <trkpt lat="45.20192" lon="5.84664">
        <ele>398.12</ele>
        <time>2021-07-03T08:43:32.000Z</time>
      </trkpt>
      <trkpt lat="45.20245" lon="5.84733">
        <ele>386.13</ele>
        <time>2021-07-03T08:43:37.000Z</time>
      </trkpt>
      <trkpt lat="45.20283" lon="5.84836">
        <ele>379.6</ele>
        <time>2021-07-03T08:43:42.000Z</time>
      </trkpt>
      <trkpt lat="45.20317" lon="5.84929">
        <ele>368.59</ele>
        <time>2021-07-03T08:43:47.000Z</time>
      </trkpt>
      <trkpt lat="45.20358" lon="5.85023">
        <ele>355.33</ele>
        <time>2021-07-03T08:43:52.000Z</time>
      </trkpt>
      <trkpt lat="45.2039" lon="5.85099">
        <ele>349.08</ele>
        <time>2021-07-03T08:43:57.000Z</time>
      </trkpt>
      <trkpt lat="45.20419" lon="5.85122">
        <ele>347.34</ele>
        <time>2021-07-03T08:44:02.000Z</time>
      </trkpt>
      <trkpt lat="45.20399" lon="5.85062">
        <ele>342.32</ele>
        <time>2021-07-03T08:44:07.000Z</time>
      </trkpt>
      <trkpt lat="45.20376" lon="5.84991">
        <ele>338.36</ele>
        <time>2021-07-03T08:44:12.000Z</time>
      </trkpt>
      <trkpt lat="45.20353" lon="5.84914">
        <ele>335.65</ele>
        <time>2021-07-03T08:44:17.000Z</time>
      </trkpt>
      <trkpt lat="45.20336" lon="5.84875">
        <ele>329.59</ele>
        <time>2021-07-03T08:44:22.000Z</time>
      </trkpt>
      <trkpt lat="45.20327" lon="5.84829">
        <ele>322.97</ele>
        <time>2021-07-03T08:44:27.000Z</time>
      </trkpt>
      <trkpt lat="45.20318" lon="5.84761">
        <ele>320.11</ele>
        <time>2021-07-03T08:44:32.000Z</time>
      </trkpt>
      <trkpt lat="45.20301" lon="5.84683">
        <ele>314.32</ele>
        <time>2021-07-03T08:44:37.000Z</time>
      </trkpt>
      <trkpt lat="45.20272" lon="5.84598">
        <ele>309.09</ele>
        <time>2021-07-03T08:44:42.000Z</time>
      </trkpt>
      <trkpt lat="45.20247" lon="5.84506">
        <ele>305.38</ele>
        <time>2021-07-03T08:44:47.000Z</time>
      </trkpt>
      <trkpt lat="45.20228" lon="5.84399">
        <ele>297.94</ele>
        <time>2021-07-03T08:44:52.000Z</time>
      </trkpt>
      <trkpt lat="45.20188" lon="5.84305">
        <ele>288.79</ele>
        <time>2021-07-03T08:44:57.000Z</time>
      </trkpt>
      <trkpt lat="45.20166" lon="5.84219">
        <ele>283.91</ele>
        <time>2021-07-03T08:45:02.000Z</time>
      </trkpt>
      <trkpt lat="45.20121" lon="5.84204">
        <ele>280.64</ele>
        <time>2021-07-03T08:45:07.000Z</time>
      </trkpt>
      <trkpt lat="45.20049" lon="5.84231">
        <ele>281.77</ele>
        <time>2021-07-03T08:45:12.000Z</time>
      </trkpt>
      <trkpt lat="45.19999" lon="5.8423">
        <ele>279.04</ele>
        <time>2021-07-03T08:45:17.000Z</time>
      </trkpt>
      <trkpt lat="45.20021" lon="5.8421">
        <ele>273.1</ele>
        <time>2021-07-03T08:45:22.000Z</time>
      </trkpt>
      <trkpt lat="45.20062" lon="5.84174">
        <ele>269.98</ele>
        <time>2021-07-03T08:45:27.000Z</time>
      </trkpt>
      <trkpt lat="45.20092" lon="5.84128">
        <ele>266.47</ele>
        <time>2021-07-03T08:45:32.000Z</time>
      </trkpt>
      <trkpt lat="45.20103" lon="5.84094">
        <ele>258.18</ele>
        <time>2021-07-03T08:45:37.000Z</time>
      </trkpt>
      <trkpt lat="45.20119" lon="5.84067">
        <ele>255.45</ele>
        <time>2021-07-03T08:45:42.000Z</time>
      </trkpt>
      <trkpt lat="45.20132" lon="5.8405">
        <ele>252.61</ele>
        <time>2021-07-03T08:45:47.000Z</time>
      </trkpt>
      <trkpt lat="45.20141" lon="5.84026">
        <ele>256.89</ele>
        <time>2021-07-03T08:45:52.000Z</time>
      </trkpt>
      <trkpt lat="45.20146" lon="5.84006">
        <ele>258.63</ele>
        <time>2021-07-03T08:45:57.000Z</time>
      </trkpt>
      <trkpt lat="45.20156" lon="5.84011">
        <ele>258.84</ele>
        <time>2021-07-03T08:47:05.000Z</time>
      </trkpt>
      <trkpt lat="45.20173" lon="5.84027">
        <ele>251.98</ele>
        <time>2021-07-03T08:47:10.000Z</time>
      </trkpt>
      <trkpt lat="45.20192" lon="5.84043">
        <ele>251.02</ele>
        <time>2021-07-03T08:47:15.000Z</time>
      </trkpt>
      <trkpt lat="45.20212" lon="5.84061">
        <ele>248.7</ele>
        <time>2021-07-03T08:47:20.000Z</time>
      </trkpt>
      <trkpt lat="45.20238" lon="5.8408">
        <ele>248.63</ele>
        <time>2021-07-03T08:47:25.000Z</time>
      </trkpt>
      <trkpt lat="45.20262" lon="5.84096">
        <ele>250.17</ele>
        <time>2021-07-03T08:47:30.000Z</time>
      </trkpt>
      <trkpt lat="45.20274" lon="5.84122">
        <ele>248.05</ele>
        <time>2021-07-03T08:47:35.000Z</time>
      </trkpt>
      <trkpt lat="45.20282" lon="5.84135">
        <ele>247.39</ele>
        <time>2021-07-03T08:47:40.000Z</time>
      </trkpt>
      <trkpt lat="45.20293" lon="5.84155">
        <ele>242.35</ele>
        <time>2021-07-03T08:47:45.000Z</time>
      </trkpt>
      <trkpt lat="45.2031" lon="5.84185">
        <ele>243.76</ele>
        <time>2021-07-03T08:47:50.000Z</time>
      </trkpt>
      <trkpt lat="45.2033" lon="5.8422">
        <ele>241.46</ele>
        <time>2021-07-03T08:47:55.000Z</time>
      </trkpt>
      <trkpt lat="45.20352" lon="5.8426">
        <ele>240.19</ele>
        <time>2021-07-03T08:48:00.000Z</time>
      </trkpt>
      <trkpt lat="45.20378" lon="5.84303">
        <ele>242.19</ele>
        <time>2021-07-03T08:48:05.000Z</time>
      </trkpt>
      <trkpt lat="45.20405" lon="5.84345">
        <ele>240.37</ele>
        <time>2021-07-03T08:48:10.000Z</time>
      </trkpt>
      <trkpt lat="45.20431" lon="5.84391">
        <ele>239.08</ele>
        <time>2021-07-03T08:48:15.000Z</time>
      </trkpt>
      <trkpt lat="45.20458" lon="5.84437">
        <ele>237.83</ele>
        <time>2021-07-03T08:48:20.000Z</time>
      </trkpt>
      <trkpt lat="45.20485" lon="5.84482">
        <ele>235.83</ele>
        <time>2021-07-03T08:48:25.000Z</time>
      </trkpt>
      <trkpt lat="45.2051" lon="5.84525">
        <ele>234.95</ele>
        <time>2021-07-03T08:48:30.000Z</time>
      </trkpt>
      <trkpt lat="45.20537" lon="5.84568">
        <ele>234.65</ele>
        <time>2021-07-03T08:48:35.000Z</time>
      </trkpt>
      <trkpt lat="45.20563" lon="5.84613">
        <ele>232.16</ele>
        <time>2021-07-03T08:48:40.000Z</time>
      </trkpt>
      <trkpt lat="45.20589" lon="5.84657">
        <ele>227.89</ele>
        <time>2021-07-03T08:48:45.000Z</time>
      </trkpt>
      <trkpt lat="45.20613" lon="5.84703">
        <ele>225.78</ele>
        <time>2021-07-03T08:48:50.000Z</time>
      </trkpt>
      <trkpt lat="45.20638" lon="5.84742">
        <ele>225.78</ele>
        <time>2021-07-03T08:48:55.000Z</time>
      </trkpt>
      <trkpt lat="45.20666" lon="5.84785">
        <ele>224.78</ele>
        <time>2021-07-03T08:49:00.000Z</time>
      </trkpt>
      <trkpt lat="45.20694" lon="5.84823">
        <ele>226.79</ele>
        <time>2021-07-03T08:49:05.000Z</time>
      </trkpt>
      <trkpt lat="45.20716" lon="5.84863">
        <ele>224.34</ele>
        <time>2021-07-03T08:49:10.000Z</time>
      </trkpt>
      <trkpt lat="45.20736" lon="5.84901">
        <ele>221.53</ele>
        <time>2021-07-03T08:49:15.000Z</time>
      </trkpt>
      <trkpt lat="45.2075" lon="5.84941">
        <ele>222.54</ele>
        <time>2021-07-03T08:49:20.000Z</time>
      </trkpt>
      <trkpt lat="45.20767" lon="5.84978">
        <ele>224.38</ele>
        <time>2021-07-03T08:49:25.000Z</time>
      </trkpt>
      <trkpt lat="45.20791" lon="5.85011">
        <ele>225.14</ele>
        <time>2021-07-03T08:49:30.000Z</time>
      </trkpt>
      <trkpt lat="45.20811" lon="5.85044">
        <ele>224.8</ele>
        <time>2021-07-03T08:49:35.000Z</time>
      </trkpt>
      <trkpt lat="45.20829" lon="5.85077">
        <ele>222.93</ele>
        <time>2021-07-03T08:49:40.000Z</time>
      </trkpt>
      <trkpt lat="45.20846" lon="5.8511">
        <ele>224.13</ele>
        <time>2021-07-03T08:49:45.000Z</time>
      </trkpt>
      <trkpt lat="45.20866" lon="5.85143">
        <ele>225.4</ele>
        <time>2021-07-03T08:49:50.000Z</time>
      </trkpt>
      <trkpt lat="45.20885" lon="5.85177">
        <ele>225.96</ele>
        <time>2021-07-03T08:49:55.000Z</time>
      </trkpt>
      <trkpt lat="45.20905" lon="5.8521">
        <ele>225.15</ele>
        <time>2021-07-03T08:50:00.000Z</time>
      </trkpt>
      <trkpt lat="45.20924" lon="5.85245">
        <ele>223.87</ele>
        <time>2021-07-03T08:50:05.000Z</time>
      </trkpt>
      <trkpt lat="45.20947" lon="5.85279">
        <ele>223.09</ele>
        <time>2021-07-03T08:50:10.000Z</time>
      </trkpt>
      <trkpt lat="45.20968" lon="5.85315">
        <ele>223.43</ele>
        <time>2021-07-03T08:50:15.000Z</time>
      </trkpt>
      <trkpt lat="45.20988" lon="5.85347">
        <ele>223.1</ele>
        <time>2021-07-03T08:50:20.000Z</time>
      </trkpt>
      <trkpt lat="45.21008" lon="5.85384">
        <ele>223.95</ele>
        <time>2021-07-03T08:50:25.000Z</time>
      </trkpt>
      <trkpt lat="45.21027" lon="5.85421">
        <ele>223.9</ele>
        <time>2021-07-03T08:50:30.000Z</time>
      </trkpt>
      <trkpt lat="45.21049" lon="5.85457">
        <ele>224.67</ele>
        <time>2021-07-03T08:50:35.000Z</time>
      </trkpt>
      <trkpt lat="45.21073" lon="5.85493">
        <ele>226.41</ele>
        <time>2021-07-03T08:50:40.000Z</time>
      </trkpt>
      <trkpt lat="45.2109" lon="5.85529">
        <ele>226.39</ele>
        <time>2021-07-03T08:50:45.000Z</time>
      </trkpt>
      <trkpt lat="45.21111" lon="5.85567">
        <ele>226.56</ele>
        <time>2021-07-03T08:50:50.000Z</time>
      </trkpt>
      <trkpt lat="45.2113" lon="5.85603">
        <ele>224.84</ele>
        <time>2021-07-03T08:50:55.000Z</time>
      </trkpt>
      <trkpt lat="45.21152" lon="5.85641">
        <ele>224.66</ele>
        <time>2021-07-03T08:51:00.000Z</time>
      </trkpt>
      <trkpt lat="45.2117" lon="5.85674">
        <ele>224.97</ele>
        <time>2021-07-03T08:51:05.000Z</time>
      </trkpt>
      <trkpt lat="45.21187" lon="5.85708">
        <ele>226.44</ele>
        <time>2021-07-03T08:51:10.000Z</time>
      </trkpt>
      <trkpt lat="45.21206" lon="5.85737">
        <ele>227.44</ele>
        <time>2021-07-03T08:51:15.000Z</time>
      </trkpt>
      <trkpt lat="45.21225" lon="5.85765">
        <ele>228.67</ele>
        <time>2021-07-03T08:51:20.000Z</time>
      </trkpt>
      <trkpt lat="45.21241" lon="5.85795">
        <ele>227.37</ele>
        <time>2021-07-03T08:51:25.000Z</time>
      </trkpt>
      <trkpt lat="45.21254" lon="5.85817">
        <ele>228.05</ele>
        <time>2021-07-03T08:51:30.000Z</time>
      </trkpt>
      <trkpt lat="45.21268" lon="5.8584">
        <ele>228.52</ele>
        <time>2021-07-03T08:51:35.000Z</time>
      </trkpt>
      <trkpt lat="45.21284" lon="5.85869">
        <ele>227.54</ele>
        <time>2021-07-03T08:51:40.000Z</time>
      </trkpt>
      <trkpt lat="45.21303" lon="5.859">
        <ele>227.23</ele>
        <time>2021-07-03T08:51:45.000Z</time>
      </trkpt>
      <trkpt lat="45.21324" lon="5.8593">
        <ele>228.08</ele>
        <time>2021-07-03T08:51:50.000Z</time>
      </trkpt>
      <trkpt lat="45.21341" lon="5.85964">
        <ele>229.91</ele>
        <time>2021-07-03T08:51:55.000Z</time>
      </trkpt>
      <trkpt lat="45.21359" lon="5.85997">
        <ele>230.19</ele>
        <time>2021-07-03T08:52:00.000Z</time>
      </trkpt>
      <trkpt lat="45.21377" lon="5.8603">
        <ele>228.79</ele>
        <time>2021-07-03T08:52:05.000Z</time>
      </trkpt>
      <trkpt lat="45.21403" lon="5.86061">
        <ele>227.89</ele>
        <time>2021-07-03T08:52:10.000Z</time>
      </trkpt>
      <trkpt lat="45.21432" lon="5.86084">
        <ele>227.51</ele>
        <time>2021-07-03T08:52:15.000Z</time>
      </trkpt>
      <trkpt lat="45.21456" lon="5.86107">
        <ele>228.14</ele>
        <time>2021-07-03T08:52:20.000Z</time>
      </trkpt>
      <trkpt lat="45.21482" lon="5.86127">
        <ele>228.14</ele>
        <time>2021-07-03T08:52:25.000Z</time>
      </trkpt>
      <trkpt lat="45.21507" lon="5.86144">
        <ele>228.65</ele>
        <time>2021-07-03T08:52:30.000Z</time>
      </trkpt>
      <trkpt lat="45.21527" lon="5.86164">
        <ele>231.91</ele>
        <time>2021-07-03T08:52:35.000Z</time>
      </trkpt>
      <trkpt lat="45.21541" lon="5.8619">
        <ele>232.68</ele>
        <time>2021-07-03T08:52:40.000Z</time>
      </trkpt>
      <trkpt lat="45.21553" lon="5.86223">
        <ele>233.09</ele>
        <time>2021-07-03T08:52:45.000Z</time>
      </trkpt>
      <trkpt lat="45.21562" lon="5.86245">
        <ele>234.95</ele>
        <time>2021-07-03T08:52:50.000Z</time>
      </trkpt>
      <trkpt lat="45.21571" lon="5.86249">
        <ele>235.78</ele>
        <time>2021-07-03T08:52:55.000Z</time>
      </trkpt>
      <trkpt lat="45.21589" lon="5.86267">
        <ele>235.14</ele>
        <time>2021-07-03T08:53:00.000Z</time>
      </trkpt>
      <trkpt lat="45.21611" lon="5.86295">
        <ele>232.63</ele>
        <time>2021-07-03T08:53:05.000Z</time>
      </trkpt>
      <trkpt lat="45.21641" lon="5.86327">
        <ele>228.49</ele>
        <time>2021-07-03T08:53:10.000Z</time>
      </trkpt>
      <trkpt lat="45.21672" lon="5.86362">
        <ele>227.01</ele>
        <time>2021-07-03T08:53:15.000Z</time>
      </trkpt>
      <trkpt lat="45.21705" lon="5.86397">
        <ele>227.99</ele>
        <time>2021-07-03T08:53:20.000Z</time>
      </trkpt>
      <trkpt lat="45.21735" lon="5.8643">
        <ele>226.33</ele>
        <time>2021-07-03T08:53:25.000Z</time>
      </trkpt>
      <trkpt lat="45.2176" lon="5.8646">
        <ele>224.94</ele>
        <time>2021-07-03T08:53:30.000Z</time>
      </trkpt>
      <trkpt lat="45.21781" lon="5.86478">
        <ele>224.45</ele>
        <time>2021-07-03T08:53:35.000Z</time>
      </trkpt>
      <trkpt lat="45.21796" lon="5.86495">
        <ele>224.01</ele>
        <time>2021-07-03T08:53:40.000Z</time>
      </trkpt>
      <trkpt lat="45.21811" lon="5.86515">
        <ele>223.74</ele>
        <time>2021-07-03T08:53:45.000Z</time>
      </trkpt>
      <trkpt lat="45.21834" lon="5.86536">
        <ele>223.3</ele>
        <time>2021-07-03T08:53:50.000Z</time>
      </trkpt>
      <trkpt lat="45.21856" lon="5.86561">
        <ele>224.49</ele>
        <time>2021-07-03T08:53:55.000Z</time>
      </trkpt>
      <trkpt lat="45.2188" lon="5.86584">
        <ele>224.72</ele>
        <time>2021-07-03T08:54:00.000Z</time>
      </trkpt>
      <trkpt lat="45.21899" lon="5.86607">
        <ele>224.88</ele>
        <time>2021-07-03T08:54:05.000Z</time>
      </trkpt>
      <trkpt lat="45.21919" lon="5.86631">
        <ele>223.73</ele>
        <time>2021-07-03T08:54:10.000Z</time>
      </trkpt>
      <trkpt lat="45.21942" lon="5.86655">
        <ele>224.99</ele>
        <time>2021-07-03T08:54:15.000Z</time>
      </trkpt>
      <trkpt lat="45.21967" lon="5.86682">
        <ele>224.3</ele>
        <time>2021-07-03T08:54:20.000Z</time>
      </trkpt>
      <trkpt lat="45.21991" lon="5.86709">
        <ele>225.53</ele>
        <time>2021-07-03T08:54:25.000Z</time>
      </trkpt>
      <trkpt lat="45.22013" lon="5.86735">
        <ele>226.84</ele>
        <time>2021-07-03T08:54:30.000Z</time>
      </trkpt>
      <trkpt lat="45.22039" lon="5.86764">
        <ele>227.63</ele>
        <time>2021-07-03T08:54:35.000Z</time>
      </trkpt>
      <trkpt lat="45.22064" lon="5.86791">
        <ele>229.2</ele>
        <time>2021-07-03T08:54:40.000Z</time>
      </trkpt>
      <trkpt lat="45.2209" lon="5.86815">
        <ele>230.21</ele>
        <time>2021-07-03T08:54:45.000Z</time>
      </trkpt>
      <trkpt lat="45.22123" lon="5.86831">
        <ele>230.6</ele>
        <time>2021-07-03T08:54:50.000Z</time>
      </trkpt>
      <trkpt lat="45.2214" lon="5.86863">
        <ele>227.12</ele>
        <time>2021-07-03T08:54:55.000Z</time>
      </trkpt>
      <trkpt lat="45.22167" lon="5.86888">
        <ele>229.04</ele>
        <time>2021-07-03T08:55:00.000Z</time>
      </trkpt>
      <trkpt lat="45.2219" lon="5.86916">
        <ele>228.55</ele>
        <time>2021-07-03T08:55:05.000Z</time>
      </trkpt>
      <trkpt lat="45.22217" lon="5.86941">
        <ele>229.26</ele>
        <time>2021-07-03T08:55:10.000Z</time>
      </trkpt>
      <trkpt lat="45.2224" lon="5.86968">
        <ele>234.32</ele>
        <time>2021-07-03T08:55:15.000Z</time>
      </trkpt>
      <trkpt lat="45.22263" lon="5.86997">
        <ele>236.62</ele>
        <time>2021-07-03T08:55:20.000Z</time>
      </trkpt>
      <trkpt lat="45.22291" lon="5.87023">
        <ele>237.88</ele>
        <time>2021-07-03T08:55:25.000Z</time>
      </trkpt>
      <trkpt lat="45.22321" lon="5.87048">
        <ele>239.32</ele>
        <time>2021-07-03T08:55:30.000Z</time>
      </trkpt>
      <trkpt lat="45.22343" lon="5.87077">
        <ele>237.87</ele>
        <time>2021-07-03T08:55:35.000Z</time>
      </trkpt>
      <trkpt lat="45.22364" lon="5.87108">
        <ele>230.77</ele>
        <time>2021-07-03T08:55:40.000Z</time>
      </trkpt>
      <trkpt lat="45.22393" lon="5.87136">
        <ele>232.03</ele>
        <time>2021-07-03T08:55:45.000Z</time>
      </trkpt>
      <trkpt lat="45.22423" lon="5.8716">
        <ele>231.75</ele>
        <time>2021-07-03T08:55:50.000Z</time>
      </trkpt>
      <trkpt lat="45.22448" lon="5.87188">
        <ele>231.25</ele>
        <time>2021-07-03T08:55:55.000Z</time>
      </trkpt>
      <trkpt lat="45.22475" lon="5.87216">
        <ele>230.79</ele>
        <time>2021-07-03T08:56:00.000Z</time>
      </trkpt>
      <trkpt lat="45.22501" lon="5.87245">
        <ele>231.93</ele>
        <time>2021-07-03T08:56:05.000Z</time>
      </trkpt>
      <trkpt lat="45.22524" lon="5.87272">
        <ele>231.3</ele>
        <time>2021-07-03T08:56:10.000Z</time>
      </trkpt>
      <trkpt lat="45.22548" lon="5.87296">
        <ele>232.54</ele>
        <time>2021-07-03T08:56:15.000Z</time>
      </trkpt>
      <trkpt lat="45.22576" lon="5.87307">
        <ele>230.31</ele>
        <time>2021-07-03T08:56:20.000Z</time>
      </trkpt>
      <trkpt lat="45.22603" lon="5.87323">
        <ele>229.61</ele>
        <time>2021-07-03T08:56:25.000Z</time>
      </trkpt>
      <trkpt lat="45.22629" lon="5.8734">
        <ele>229.66</ele>
        <time>2021-07-03T08:56:30.000Z</time>
      </trkpt>
      <trkpt lat="45.2265" lon="5.87367">
        <ele>226.81</ele>
        <time>2021-07-03T08:56:35.000Z</time>
      </trkpt>
      <trkpt lat="45.22666" lon="5.87405">
        <ele>229.43</ele>
        <time>2021-07-03T08:56:40.000Z</time>
      </trkpt>
      <trkpt lat="45.22681" lon="5.87439">
        <ele>230.63</ele>
        <time>2021-07-03T08:56:45.000Z</time>
      </trkpt>
      <trkpt lat="45.22703" lon="5.87474">
        <ele>230.83</ele>
        <time>2021-07-03T08:56:50.000Z</time>
      </trkpt>
      <trkpt lat="45.22727" lon="5.87496">
        <ele>228.74</ele>
        <time>2021-07-03T08:56:55.000Z</time>
      </trkpt>
      <trkpt lat="45.22747" lon="5.8752">
        <ele>227.65</ele>
        <time>2021-07-03T08:57:00.000Z</time>
      </trkpt>
      <trkpt lat="45.22772" lon="5.87543">
        <ele>227.69</ele>
        <time>2021-07-03T08:57:05.000Z</time>
      </trkpt>
      <trkpt lat="45.22795" lon="5.87568">
        <ele>230.46</ele>
        <time>2021-07-03T08:57:10.000Z</time>
      </trkpt>
      <trkpt lat="45.22818" lon="5.87595">
        <ele>230.43</ele>
        <time>2021-07-03T08:57:15.000Z</time>
      </trkpt>
      <trkpt lat="45.22837" lon="5.87624">
        <ele>227.39</ele>
        <time>2021-07-03T08:57:20.000Z</time>
      </trkpt>
      <trkpt lat="45.22864" lon="5.87649">
        <ele>229.24</ele>
        <time>2021-07-03T08:57:25.000Z</time>
      </trkpt>
      <trkpt lat="45.22887" lon="5.87672">
        <ele>229.37</ele>
        <time>2021-07-03T08:57:30.000Z</time>
      </trkpt>
      <trkpt lat="45.22913" lon="5.87694">
        <ele>232.74</ele>
        <time>2021-07-03T08:57:35.000Z</time>
      </trkpt>
      <trkpt lat="45.22931" lon="5.87724">
        <ele>232.55</ele>
        <time>2021-07-03T08:57:40.000Z</time>
      </trkpt>
      <trkpt lat="45.22956" lon="5.87748">
        <ele>230.54</ele>
        <time>2021-07-03T08:57:45.000Z</time>
      </trkpt>
      <trkpt lat="45.22977" lon="5.87771">
        <ele>229.06</ele>
        <time>2021-07-03T08:57:50.000Z</time>
      </trkpt>
      <trkpt lat="45.22994" lon="5.87793">
        <ele>228.8</ele>
        <time>2021-07-03T08:57:55.000Z</time>
      </trkpt>
      <trkpt lat="45.23003" lon="5.87797">
        <ele>228.61</ele>
        <time>2021-07-03T08:58:28.000Z</time>
      </trkpt>
      <trkpt lat="45.23011" lon="5.87805">
        <ele>229.14</ele>
        <time>2021-07-03T08:58:33.000Z</time>
      </trkpt>
      <trkpt lat="45.23024" lon="5.87818">
        <ele>231.13</ele>
        <time>2021-07-03T08:58:38.000Z</time>
      </trkpt>
      <trkpt lat="45.23041" lon="5.87837">
        <ele>231.12</ele>
        <time>2021-07-03T08:58:43.000Z</time>
      </trkpt>
      <trkpt lat="45.23059" lon="5.87854">
        <ele>231.1</ele>
        <time>2021-07-03T08:58:48.000Z</time>
      </trkpt>
      <trkpt lat="45.2308" lon="5.87873">
        <ele>232.61</ele>
        <time>2021-07-03T08:58:53.000Z</time>
      </trkpt>
      <trkpt lat="45.23098" lon="5.87892">
        <ele>231.57</ele>
        <time>2021-07-03T08:58:58.000Z</time>
      </trkpt>
      <trkpt lat="45.23121" lon="5.87911">
        <ele>234.8</ele>
        <time>2021-07-03T08:59:03.000Z</time>
      </trkpt>
      <trkpt lat="45.23139" lon="5.87934">
        <ele>231.76</ele>
        <time>2021-07-03T08:59:08.000Z</time>
      </trkpt>
      <trkpt lat="45.23162" lon="5.87953">
        <ele>232.78</ele>
        <time>2021-07-03T08:59:13.000Z</time>
      </trkpt>
      <trkpt lat="45.23181" lon="5.87978">
        <ele>232.83</ele>
        <time>2021-07-03T08:59:18.000Z</time>
      </trkpt>
      <trkpt lat="45.23199" lon="5.88">
        <ele>231.89</ele>
        <time>2021-07-03T08:59:23.000Z</time>
      </trkpt>
      <trkpt lat="45.23221" lon="5.88024">
        <ele>231.37</ele>
        <time>2021-07-03T08:59:28.000Z</time>
      </trkpt>
      <trkpt lat="45.23245" lon="5.88045">
        <ele>231.89</ele>
        <time>2021-07-03T08:59:33.000Z</time>
      </trkpt>
      <trkpt lat="45.23267" lon="5.88065">
        <ele>233.89</ele>
        <time>2021-07-03T08:59:38.000Z</time>
      </trkpt>
      <trkpt lat="45.2329" lon="5.88088">
        <ele>234.61</ele>
        <time>2021-07-03T08:59:43.000Z</time>
      </trkpt>
      <trkpt lat="45.23311" lon="5.88111">
        <ele>235.66</ele>
        <time>2021-07-03T08:59:48.000Z</time>
      </trkpt>
      <trkpt lat="45.23328" lon="5.88136">
        <ele>234.17</ele>
        <time>2021-07-03T08:59:53.000Z</time>
      </trkpt>
      <trkpt lat="45.23343" lon="5.8816">
        <ele>232.94</ele>
        <time>2021-07-03T08:59:58.000Z</time>
      </trkpt>
      <trkpt lat="45.23356" lon="5.88188">
        <ele>229.53</ele>
        <time>2021-07-03T09:00:03.000Z</time>
      </trkpt>
      <trkpt lat="45.2337" lon="5.88214">
        <ele>229.1</ele>
        <time>2021-07-03T09:00:08.000Z</time>
      </trkpt>
      <trkpt lat="45.23383" lon="5.88238">
        <ele>233.13</ele>
        <time>2021-07-03T09:00:13.000Z</time>
      </trkpt>
      <trkpt lat="45.23391" lon="5.88252">
        <ele>234.79</ele>
        <time>2021-07-03T09:00:18.000Z</time>
      </trkpt>
      <trkpt lat="45.23388" lon="5.88269">
        <ele>234.57</ele>
        <time>2021-07-03T09:00:23.000Z</time>
      </trkpt>
      <trkpt lat="45.23375" lon="5.88285">
        <ele>234.64</ele>
        <time>2021-07-03T09:00:28.000Z</time>
      </trkpt>
      <trkpt lat="45.23362" lon="5.88303">
        <ele>235.13</ele>
        <time>2021-07-03T09:00:33.000Z</time>
      </trkpt>
      <trkpt lat="45.2335" lon="5.88319">
        <ele>236.36</ele>
        <time>2021-07-03T09:00:38.000Z</time>
      </trkpt>
      <trkpt lat="45.23337" lon="5.88334">
        <ele>239.29</ele>
        <time>2021-07-03T09:00:43.000Z</time>
      </trkpt>
      <trkpt lat="45.23325" lon="5.88348">
        <ele>237.37</ele>
        <time>2021-07-03T09:00:48.000Z</time>
      </trkpt>
      <trkpt lat="45.23314" lon="5.88362">
        <ele>239.69</ele>
        <time>2021-07-03T09:00:53.000Z</time>
      </trkpt>
      <trkpt lat="45.23305" lon="5.88377">
        <ele>240.64</ele>
        <time>2021-07-03T09:00:58.000Z</time>
      </trkpt>
      <trkpt lat="45.23291" lon="5.88391">
        <ele>240.85</ele>
        <time>2021-07-03T09:01:03.000Z</time>
      </trkpt>
      <trkpt lat="45.2328" lon="5.88405">
        <ele>245.39</ele>
        <time>2021-07-03T09:01:08.000Z</time>
      </trkpt>
      <trkpt lat="45.23279" lon="5.88418">
        <ele>244.75</ele>
        <time>2021-07-03T09:02:36.000Z</time>
      </trkpt>
      <trkpt lat="45.23277" lon="5.88442">
        <ele>242.24</ele>
        <time>2021-07-03T09:02:41.000Z</time>
      </trkpt>
      <trkpt lat="45.23278" lon="5.88466">
        <ele>240.65</ele>
        <time>2021-07-03T09:02:46.000Z</time>
      </trkpt>
      <trkpt lat="45.23283" lon="5.8849">
        <ele>244.13</ele>
        <time>2021-07-03T09:02:51.000Z</time>
      </trkpt>
      <trkpt lat="45.23295" lon="5.88511">
        <ele>248.22</ele>
        <time>2021-07-03T09:02:56.000Z</time>
      </trkpt>
      <trkpt lat="45.23311" lon="5.88527">
        <ele>251.64</ele>
        <time>2021-07-03T09:03:01.000Z</time>
      </trkpt>
      <trkpt lat="45.23326" lon="5.88548">
        <ele>250.97</ele>
        <time>2021-07-03T09:03:06.000Z</time>
      </trkpt>
      <trkpt lat="45.23342" lon="5.88564">
        <ele>251.84</ele>
        <time>2021-07-03T09:03:11.000Z</time>
      </trkpt>
      <trkpt lat="45.23355" lon="5.88586">
        <ele>252.36</ele>
        <time>2021-07-03T09:03:16.000Z</time>
      </trkpt>
      <trkpt lat="45.23377" lon="5.88602">
        <ele>255.8</ele>
        <time>2021-07-03T09:03:21.000Z</time>
      </trkpt>
      <trkpt lat="45.23393" lon="5.88621">
        <ele>253.7</ele>
        <time>2021-07-03T09:03:26.000Z</time>
      </trkpt>
      <trkpt lat="45.23407" lon="5.8864">
        <ele>254.62</ele>
        <time>2021-07-03T09:03:31.000Z</time>
      </trkpt>
      <trkpt lat="45.23416" lon="5.8867">
        <ele>254.85</ele>
        <time>2021-07-03T09:03:36.000Z</time>
      </trkpt>
      <trkpt lat="45.23424" lon="5.887">
        <ele>257.2</ele>
        <time>2021-07-03T09:03:41.000Z</time>
      </trkpt>
      <trkpt lat="45.2343" lon="5.88723">
        <ele>255.45</ele>
        <time>2021-07-03T09:03:46.000Z</time>
      </trkpt>
      <trkpt lat="45.23447" lon="5.88744">
        <ele>260.34</ele>
        <time>2021-07-03T09:03:51.000Z</time>
      </trkpt>
      <trkpt lat="45.23461" lon="5.88764">
        <ele>262.04</ele>
        <time>2021-07-03T09:03:56.000Z</time>
      </trkpt>
      <trkpt lat="45.23477" lon="5.88785">
        <ele>260.7</ele>
        <time>2021-07-03T09:04:01.000Z</time>
      </trkpt>
      <trkpt lat="45.23494" lon="5.88803">
        <ele>259.07</ele>
        <time>2021-07-03T09:04:06.000Z</time>
      </trkpt>
      <trkpt lat="45.2351" lon="5.88817">
        <ele>262.13</ele>
        <time>2021-07-03T09:04:11.000Z</time>
      </trkpt>
      <trkpt lat="45.23528" lon="5.88829">
        <ele>262.65</ele>
        <time>2021-07-03T09:04:16.000Z</time>
      </trkpt>
      <trkpt lat="45.23545" lon="5.88845">
        <ele>254.38</ele>
        <time>2021-07-03T09:04:21.000Z</time>
      </trkpt>
      <trkpt lat="45.23562" lon="5.88856">
        <ele>256.17</ele>
        <time>2021-07-03T09:04:26.000Z</time>
      </trkpt>
      <trkpt lat="45.23577" lon="5.88871">
        <ele>256.48</ele>
        <time>2021-07-03T09:04:31.000Z</time>
      </trkpt>
      <trkpt lat="45.2359" lon="5.88888">
        <ele>257.41</ele>
        <time>2021-07-03T09:04:36.000Z</time>
      </trkpt>
      <trkpt lat="45.23602" lon="5.88903">
        <ele>260.53</ele>
        <time>2021-07-03T09:04:41.000Z</time>
      </trkpt>
      <trkpt lat="45.23615" lon="5.88924">
        <ele>256.65</ele>
        <time>2021-07-03T09:04:46.000Z</time>
      </trkpt>
      <trkpt lat="45.23629" lon="5.88944">
        <ele>254.65</ele>
        <time>2021-07-03T09:04:51.000Z</time>
      </trkpt>
      <trkpt lat="45.23644" lon="5.88961">
        <ele>258.51</ele>
        <time>2021-07-03T09:04:56.000Z</time>
      </trkpt>
      <trkpt lat="45.23656" lon="5.88975">
        <ele>257.61</ele>
        <time>2021-07-03T09:05:01.000Z</time>
      </trkpt>
      <trkpt lat="45.23661" lon="5.88997">
        <ele>260.1</ele>
        <time>2021-07-03T09:05:06.000Z</time>
      </trkpt>
      <trkpt lat="45.23672" lon="5.89014">
        <ele>260.28</ele>
        <time>2021-07-03T09:05:11.000Z</time>
      </trkpt>
      <trkpt lat="45.23685" lon="5.89033">
        <ele>255.4</ele>
        <time>2021-07-03T09:05:16.000Z</time>
      </trkpt>
      <trkpt lat="45.23699" lon="5.89058">
        <ele>256.7</ele>
        <time>2021-07-03T09:05:21.000Z</time>
      </trkpt>
      <trkpt lat="45.23712" lon="5.89083">
        <ele>258.6</ele>
        <time>2021-07-03T09:05:26.000Z</time>
      </trkpt>
      <trkpt lat="45.23727" lon="5.89107">
        <ele>260.11</ele>
        <time>2021-07-03T09:05:31.000Z</time>
      </trkpt>
      <trkpt lat="45.23748" lon="5.8912">
        <ele>265.05</ele>
        <time>2021-07-03T09:05:36.000Z</time>
      </trkpt>
      <trkpt lat="45.23762" lon="5.89139">
        <ele>269.37</ele>
        <time>2021-07-03T09:05:41.000Z</time>
      </trkpt>
      <trkpt lat="45.23763" lon="5.89159">
        <ele>271.58</ele>
        <time>2021-07-03T09:05:46.000Z</time>
      </trkpt>
      <trkpt lat="45.23768" lon="5.89182">
        <ele>268.89</ele>
        <time>2021-07-03T09:05:51.000Z</time>
      </trkpt>
      <trkpt lat="45.23781" lon="5.89196">
        <ele>272.93</ele>
        <time>2021-07-03T09:05:56.000Z</time>
      </trkpt>
      <trkpt lat="45.23794" lon="5.89213">
        <ele>274.12</ele>
        <time>2021-07-03T09:06:01.000Z</time>
      </trkpt>
      <trkpt lat="45.23808" lon="5.89234">
        <ele>274.97</ele>
        <time>2021-07-03T09:06:06.000Z</time>
      </trkpt>
      <trkpt lat="45.2382" lon="5.89257">
        <ele>274.48</ele>
        <time>2021-07-03T09:06:11.000Z</time>
      </trkpt>
      <trkpt lat="45.23826" lon="5.89285">
        <ele>273.94</ele>
        <time>2021-07-03T09:06:16.000Z</time>
      </trkpt>
      <trkpt lat="45.23841" lon="5.89307">
        <ele>277.59</ele>
        <time>2021-07-03T09:06:21.000Z</time>
      </trkpt>
      <trkpt lat="45.23859" lon="5.89327">
        <ele>282.53</ele>
        <time>2021-07-03T09:06:26.000Z</time>
      </trkpt>
      <trkpt lat="45.2387" lon="5.8935">
        <ele>282.73</ele>
        <time>2021-07-03T09:06:31.000Z</time>
      </trkpt>
      <trkpt lat="45.23881" lon="5.89375">
        <ele>284.42</ele>
        <time>2021-07-03T09:06:36.000Z</time>
      </trkpt>
      <trkpt lat="45.23898" lon="5.89397">
        <ele>283.58</ele>
        <time>2021-07-03T09:06:41.000Z</time>
      </trkpt>
      <trkpt lat="45.23917" lon="5.89412">
        <ele>287.13</ele>
        <time>2021-07-03T09:06:46.000Z</time>
      </trkpt>
      <trkpt lat="45.2393" lon="5.89429">
        <ele>287.91</ele>
        <time>2021-07-03T09:06:51.000Z</time>
      </trkpt>
      <trkpt lat="45.23945" lon="5.89447">
        <ele>286.37</ele>
        <time>2021-07-03T09:06:56.000Z</time>
      </trkpt>
      <trkpt lat="45.2396" lon="5.89464">
        <ele>287.41</ele>
        <time>2021-07-03T09:07:01.000Z</time>
      </trkpt>
      <trkpt lat="45.23976" lon="5.89478">
        <ele>292.42</ele>
        <time>2021-07-03T09:07:06.000Z</time>
      </trkpt>
      <trkpt lat="45.23997" lon="5.89491">
        <ele>294.81</ele>
        <time>2021-07-03T09:07:11.000Z</time>
      </trkpt>
      <trkpt lat="45.24014" lon="5.89509">
        <ele>295.77</ele>
        <time>2021-07-03T09:07:16.000Z</time>
      </trkpt>
      <trkpt lat="45.24027" lon="5.89531">
        <ele>293.62</ele>
        <time>2021-07-03T09:07:21.000Z</time>
      </trkpt>
      <trkpt lat="45.24046" lon="5.89549">
        <ele>295.92</ele>
        <time>2021-07-03T09:07:26.000Z</time>
      </trkpt>
      <trkpt lat="45.24063" lon="5.89563">
        <ele>297.9</ele>
        <time>2021-07-03T09:07:31.000Z</time>
      </trkpt>
      <trkpt lat="45.24078" lon="5.89582">
        <ele>297.93</ele>
        <time>2021-07-03T09:07:36.000Z</time>
      </trkpt>
      <trkpt lat="45.24093" lon="5.89599">
        <ele>299.98</ele>
        <time>2021-07-03T09:07:41.000Z</time>
      </trkpt>
      <trkpt lat="45.24105" lon="5.89612">
        <ele>301.71</ele>
        <time>2021-07-03T09:07:46.000Z</time>
      </trkpt>
      <trkpt lat="45.24118" lon="5.89626">
        <ele>304.14</ele>
        <time>2021-07-03T09:07:51.000Z</time>
      </trkpt>
      <trkpt lat="45.24131" lon="5.8964">
        <ele>306.65</ele>
        <time>2021-07-03T09:07:56.000Z</time>
      </trkpt>
      <trkpt lat="45.24137" lon="5.89669">
        <ele>310.93</ele>
        <time>2021-07-03T09:08:01.000Z</time>
      </trkpt>
      <trkpt lat="45.24146" lon="5.89678">
        <ele>318.57</ele>
        <time>2021-07-03T09:08:06.000Z</time>
      </trkpt>
      <trkpt lat="45.24153" lon="5.89689">
        <ele>322.41</ele>
        <time>2021-07-03T09:08:11.000Z</time>
      </trkpt>
      <trkpt lat="45.24168" lon="5.89706">
        <ele>323</ele>
        <time>2021-07-03T09:08:16.000Z</time>
      </trkpt>
      <trkpt lat="45.24186" lon="5.89723">
        <ele>330.24</ele>
        <time>2021-07-03T09:08:21.000Z</time>
      </trkpt>
      <trkpt lat="45.242" lon="5.89735">
        <ele>338.76</ele>
        <time>2021-07-03T09:08:26.000Z</time>
      </trkpt>
      <trkpt lat="45.2421" lon="5.89752">
        <ele>345.06</ele>
        <time>2021-07-03T09:08:31.000Z</time>
      </trkpt>
      <trkpt lat="45.24227" lon="5.89766">
        <ele>353.79</ele>
        <time>2021-07-03T09:08:36.000Z</time>
      </trkpt>
      <trkpt lat="45.24238" lon="5.89784">
        <ele>357.42</ele>
        <time>2021-07-03T09:08:41.000Z</time>
      </trkpt>
      <trkpt lat="45.2425" lon="5.89806">
        <ele>360.47</ele>
        <time>2021-07-03T09:08:46.000Z</time>
      </trkpt>
      <trkpt lat="45.24241" lon="5.89818">
        <ele>363.65</ele>
        <time>2021-07-03T09:08:51.000Z</time>
      </trkpt>
      <trkpt lat="45.24224" lon="5.89796">
        <ele>363.31</ele>
        <time>2021-07-03T09:08:56.000Z</time>
      </trkpt>
      <trkpt lat="45.24208" lon="5.89781">
        <ele>363.94</ele>
        <time>2021-07-03T09:09:01.000Z</time>
      </trkpt>
      <trkpt lat="45.24192" lon="5.89767">
        <ele>365.58</ele>
        <time>2021-07-03T09:09:06.000Z</time>
      </trkpt>
      <trkpt lat="45.24177" lon="5.89754">
        <ele>367.37</ele>
        <time>2021-07-03T09:09:11.000Z</time>
      </trkpt>
      <trkpt lat="45.24163" lon="5.89744">
        <ele>372.57</ele>
        <time>2021-07-03T09:09:16.000Z</time>
      </trkpt>
      <trkpt lat="45.24146" lon="5.89735">
        <ele>377.08</ele>
        <time>2021-07-03T09:09:21.000Z</time>
      </trkpt>
      <trkpt lat="45.24129" lon="5.89729">
        <ele>381.26</ele>
        <time>2021-07-03T09:09:26.000Z</time>
      </trkpt>
      <trkpt lat="45.24112" lon="5.89721">
        <ele>383.67</ele>
        <time>2021-07-03T09:09:31.000Z</time>
      </trkpt>
      <trkpt lat="45.24093" lon="5.89716">
        <ele>384</ele>
        <time>2021-07-03T09:09:36.000Z</time>
      </trkpt>
      <trkpt lat="45.24075" lon="5.8971">
        <ele>385.93</ele>
        <time>2021-07-03T09:09:41.000Z</time>
      </trkpt>
      <trkpt lat="45.24058" lon="5.89708">
        <ele>393.89</ele>
        <time>2021-07-03T09:09:46.000Z</time>
      </trkpt>
      <trkpt lat="45.24041" lon="5.89704">
        <ele>401.11</ele>
        <time>2021-07-03T09:09:51.000Z</time>
      </trkpt>
      <trkpt lat="45.24024" lon="5.89699">
        <ele>404.2</ele>
        <time>2021-07-03T09:09:56.000Z</time>
      </trkpt>
      <trkpt lat="45.24009" lon="5.89689">
        <ele>406.17</ele>
        <time>2021-07-03T09:10:01.000Z</time>
      </trkpt>
      <trkpt lat="45.2399" lon="5.89677">
        <ele>408.8</ele>
        <time>2021-07-03T09:10:06.000Z</time>
      </trkpt>
      <trkpt lat="45.23975" lon="5.89664">
        <ele>411.11</ele>
        <time>2021-07-03T09:10:11.000Z</time>
      </trkpt>
      <trkpt lat="45.23961" lon="5.8965">
        <ele>414.28</ele>
        <time>2021-07-03T09:10:16.000Z</time>
      </trkpt>
      <trkpt lat="45.23945" lon="5.89639">
        <ele>410.46</ele>
        <time>2021-07-03T09:10:21.000Z</time>
      </trkpt>
      <trkpt lat="45.23926" lon="5.8963">
        <ele>411.75</ele>
        <time>2021-07-03T09:10:26.000Z</time>
      </trkpt>
      <trkpt lat="45.23907" lon="5.89618">
        <ele>413.32</ele>
        <time>2021-07-03T09:10:31.000Z</time>
      </trkpt>
      <trkpt lat="45.23889" lon="5.89612">
        <ele>413.08</ele>
        <time>2021-07-03T09:10:36.000Z</time>
      </trkpt>
      <trkpt lat="45.23872" lon="5.89605">
        <ele>412.47</ele>
        <time>2021-07-03T09:10:41.000Z</time>
      </trkpt>
      <trkpt lat="45.23853" lon="5.89595">
        <ele>418.05</ele>
        <time>2021-07-03T09:10:46.000Z</time>
      </trkpt>
      <trkpt lat="45.23831" lon="5.89592">
        <ele>412.29</ele>
        <time>2021-07-03T09:10:51.000Z</time>
      </trkpt>
      <trkpt lat="45.23815" lon="5.89583">
        <ele>413.82</ele>
        <time>2021-07-03T09:10:56.000Z</time>
      </trkpt>
      <trkpt lat="45.23798" lon="5.89569">
        <ele>415.94</ele>
        <time>2021-07-03T09:11:01.000Z</time>
      </trkpt>
      <trkpt lat="45.23782" lon="5.89557">
        <ele>415.87</ele>
        <time>2021-07-03T09:11:06.000Z</time>
      </trkpt>
      <trkpt lat="45.23766" lon="5.89543">
        <ele>417.12</ele>
        <time>2021-07-03T09:11:11.000Z</time>
      </trkpt>
      <trkpt lat="45.23745" lon="5.89528">
        <ele>420.63</ele>
        <time>2021-07-03T09:11:16.000Z</time>
      </trkpt>
      <trkpt lat="45.23725" lon="5.89514">
        <ele>426.93</ele>
        <time>2021-07-03T09:11:21.000Z</time>
      </trkpt>
      <trkpt lat="45.23706" lon="5.895">
        <ele>434.76</ele>
        <time>2021-07-03T09:11:26.000Z</time>
      </trkpt>
      <trkpt lat="45.23688" lon="5.89485">
        <ele>443.03</ele>
        <time>2021-07-03T09:11:31.000Z</time>
      </trkpt>
      <trkpt lat="45.23668" lon="5.89475">
        <ele>445.97</ele>
        <time>2021-07-03T09:11:36.000Z</time>
      </trkpt>
      <trkpt lat="45.23652" lon="5.89468">
        <ele>446.9</ele>
        <time>2021-07-03T09:11:41.000Z</time>
      </trkpt>
      <trkpt lat="45.23643" lon="5.89467">
        <ele>449.85</ele>
        <time>2021-07-03T09:11:46.000Z</time>
      </trkpt>
      <trkpt lat="45.23635" lon="5.89484">
        <ele>449.13</ele>
        <time>2021-07-03T09:11:51.000Z</time>
      </trkpt>
      <trkpt lat="45.23652" lon="5.89506">
        <ele>451.35</ele>
        <time>2021-07-03T09:11:56.000Z</time>
      </trkpt>
      <trkpt lat="45.23674" lon="5.89511">
        <ele>450.14</ele>
        <time>2021-07-03T09:12:01.000Z</time>
      </trkpt>
      <trkpt lat="45.23692" lon="5.89525">
        <ele>450.88</ele>
        <time>2021-07-03T09:12:06.000Z</time>
      </trkpt>
      <trkpt lat="45.23706" lon="5.89547">
        <ele>454.52</ele>
        <time>2021-07-03T09:12:11.000Z</time>
      </trkpt>
      <trkpt lat="45.23723" lon="5.89565">
        <ele>454.48</ele>
        <time>2021-07-03T09:12:16.000Z</time>
      </trkpt>
      <trkpt lat="45.23741" lon="5.89583">
        <ele>455.57</ele>
        <time>2021-07-03T09:12:21.000Z</time>
      </trkpt>
      <trkpt lat="45.23757" lon="5.89599">
        <ele>457.33</ele>
        <time>2021-07-03T09:12:26.000Z</time>
      </trkpt>
      <trkpt lat="45.23773" lon="5.89618">
        <ele>459.32</ele>
        <time>2021-07-03T09:12:31.000Z</time>
      </trkpt>
      <trkpt lat="45.23785" lon="5.89644">
        <ele>461.19</ele>
        <time>2021-07-03T09:12:36.000Z</time>
      </trkpt>
      <trkpt lat="45.23798" lon="5.89668">
        <ele>461.06</ele>
        <time>2021-07-03T09:12:41.000Z</time>
      </trkpt>
      <trkpt lat="45.23818" lon="5.89681">
        <ele>464.81</ele>
        <time>2021-07-03T09:12:46.000Z</time>
      </trkpt>
      <trkpt lat="45.23832" lon="5.89699">
        <ele>467.54</ele>
        <time>2021-07-03T09:12:51.000Z</time>
      </trkpt>
      <trkpt lat="45.23847" lon="5.89712">
        <ele>472.9</ele>
        <time>2021-07-03T09:12:56.000Z</time>
      </trkpt>
      <trkpt lat="45.23862" lon="5.89732">
        <ele>478.44</ele>
        <time>2021-07-03T09:13:01.000Z</time>
      </trkpt>
      <trkpt lat="45.23878" lon="5.89747">
        <ele>479.9</ele>
        <time>2021-07-03T09:13:06.000Z</time>
      </trkpt>
      <trkpt lat="45.23894" lon="5.89763">
        <ele>483.84</ele>
        <time>2021-07-03T09:13:11.000Z</time>
      </trkpt>
      <trkpt lat="45.23905" lon="5.89785">
        <ele>481.75</ele>
        <time>2021-07-03T09:13:16.000Z</time>
      </trkpt>
      <trkpt lat="45.23916" lon="5.89815">
        <ele>480.74</ele>
        <time>2021-07-03T09:13:21.000Z</time>
      </trkpt>
      <trkpt lat="45.23929" lon="5.89837">
        <ele>482.41</ele>
        <time>2021-07-03T09:13:26.000Z</time>
      </trkpt>
      <trkpt lat="45.23933" lon="5.89861">
        <ele>487.27</ele>
        <time>2021-07-03T09:13:31.000Z</time>
      </trkpt>
      <trkpt lat="45.23941" lon="5.8988">
        <ele>488.74</ele>
        <time>2021-07-03T09:13:36.000Z</time>
      </trkpt>
      <trkpt lat="45.23957" lon="5.89904">
        <ele>491.63</ele>
        <time>2021-07-03T09:13:41.000Z</time>
      </trkpt>
      <trkpt lat="45.23973" lon="5.8993">
        <ele>491.25</ele>
        <time>2021-07-03T09:13:46.000Z</time>
      </trkpt>
      <trkpt lat="45.23989" lon="5.8995">
        <ele>491.41</ele>
        <time>2021-07-03T09:13:51.000Z</time>
      </trkpt>
      <trkpt lat="45.24001" lon="5.89962">
        <ele>490.83</ele>
        <time>2021-07-03T09:13:56.000Z</time>
      </trkpt>
      <trkpt lat="45.24021" lon="5.89975">
        <ele>495.61</ele>
        <time>2021-07-03T09:14:01.000Z</time>
      </trkpt>
      <trkpt lat="45.24036" lon="5.89992">
        <ele>494.67</ele>
        <time>2021-07-03T09:14:06.000Z</time>
      </trkpt>
      <trkpt lat="45.24049" lon="5.90015">
        <ele>498.93</ele>
        <time>2021-07-03T09:14:11.000Z</time>
      </trkpt>
      <trkpt lat="45.24061" lon="5.90036">
        <ele>500.76</ele>
        <time>2021-07-03T09:14:16.000Z</time>
      </trkpt>
      <trkpt lat="45.2408" lon="5.90051">
        <ele>506.71</ele>
        <time>2021-07-03T09:14:21.000Z</time>
      </trkpt>
      <trkpt lat="45.24098" lon="5.90071">
        <ele>508.03</ele>
        <time>2021-07-03T09:14:26.000Z</time>
      </trkpt>
      <trkpt lat="45.24102" lon="5.90097">
        <ele>511.97</ele>
        <time>2021-07-03T09:14:31.000Z</time>
      </trkpt>
      <trkpt lat="45.2409" lon="5.90113">
        <ele>514.36</ele>
        <time>2021-07-03T09:14:36.000Z</time>
      </trkpt>
      <trkpt lat="45.24073" lon="5.9012">
        <ele>518.88</ele>
        <time>2021-07-03T09:14:41.000Z</time>
      </trkpt>
      <trkpt lat="45.24058" lon="5.9013">
        <ele>519.84</ele>
        <time>2021-07-03T09:14:46.000Z</time>
      </trkpt>
      <trkpt lat="45.24045" lon="5.90146">
        <ele>523.68</ele>
        <time>2021-07-03T09:14:51.000Z</time>
      </trkpt>
      <trkpt lat="45.24034" lon="5.90174">
        <ele>525.12</ele>
        <time>2021-07-03T09:14:56.000Z</time>
      </trkpt>
      <trkpt lat="45.24029" lon="5.90206">
        <ele>528.47</ele>
        <time>2021-07-03T09:15:01.000Z</time>
      </trkpt>
      <trkpt lat="45.24027" lon="5.90231">
        <ele>529.69</ele>
        <time>2021-07-03T09:15:06.000Z</time>
      </trkpt>
      <trkpt lat="45.24015" lon="5.90252">
        <ele>530.24</ele>
        <time>2021-07-03T09:15:11.000Z</time>
      </trkpt>
      <trkpt lat="45.24" lon="5.90272">
        <ele>532.27</ele>
        <time>2021-07-03T09:15:16.000Z</time>
      </trkpt>
      <trkpt lat="45.23984" lon="5.90288">
        <ele>534.34</ele>
        <time>2021-07-03T09:15:21.000Z</time>
      </trkpt>
      <trkpt lat="45.23968" lon="5.90297">
        <ele>535.19</ele>
        <time>2021-07-03T09:15:26.000Z</time>
      </trkpt>
      <trkpt lat="45.23944" lon="5.903">
        <ele>531.48</ele>
        <time>2021-07-03T09:15:31.000Z</time>
      </trkpt>
      <trkpt lat="45.23929" lon="5.90318">
        <ele>534.56</ele>
        <time>2021-07-03T09:15:36.000Z</time>
      </trkpt>
      <trkpt lat="45.23913" lon="5.90337">
        <ele>537.78</ele>
        <time>2021-07-03T09:15:41.000Z</time>
      </trkpt>
      <trkpt lat="45.23897" lon="5.90351">
        <ele>538.1</ele>
        <time>2021-07-03T09:15:46.000Z</time>
      </trkpt>
      <trkpt lat="45.23881" lon="5.90361">
        <ele>543.7</ele>
        <time>2021-07-03T09:15:51.000Z</time>
      </trkpt>
      <trkpt lat="45.23862" lon="5.90371">
        <ele>544.99</ele>
        <time>2021-07-03T09:15:56.000Z</time>
      </trkpt>
      <trkpt lat="45.23842" lon="5.9038">
        <ele>547.25</ele>
        <time>2021-07-03T09:16:01.000Z</time>
      </trkpt>
      <trkpt lat="45.23822" lon="5.90394">
        <ele>548.89</ele>
        <time>2021-07-03T09:16:06.000Z</time>
      </trkpt>
      <trkpt lat="45.23807" lon="5.90409">
        <ele>550.97</ele>
        <time>2021-07-03T09:16:11.000Z</time>
      </trkpt>
      <trkpt lat="45.23794" lon="5.90434">
        <ele>556.26</ele>
        <time>2021-07-03T09:16:16.000Z</time>
      </trkpt>
      <trkpt lat="45.23783" lon="5.90463">
        <ele>557.8</ele>
        <time>2021-07-03T09:16:21.000Z</time>
      </trkpt>
      <trkpt lat="45.23779" lon="5.90494">
        <ele>559.78</ele>
        <time>2021-07-03T09:16:26.000Z</time>
      </trkpt>
      <trkpt lat="45.23772" lon="5.90519">
        <ele>560.18</ele>
        <time>2021-07-03T09:16:31.000Z</time>
      </trkpt>
      <trkpt lat="45.23764" lon="5.90546">
        <ele>560.96</ele>
        <time>2021-07-03T09:16:36.000Z</time>
      </trkpt>
      <trkpt lat="45.23758" lon="5.90568">
        <ele>565.33</ele>
        <time>2021-07-03T09:16:41.000Z</time>
      </trkpt>
      <trkpt lat="45.23751" lon="5.90594">
        <ele>571.65</ele>
        <time>2021-07-03T09:16:46.000Z</time>
      </trkpt>
      <trkpt lat="45.23744" lon="5.90622">
        <ele>572.33</ele>
        <time>2021-07-03T09:16:51.000Z</time>
      </trkpt>
      <trkpt lat="45.23744" lon="5.90652">
        <ele>571.46</ele>
        <time>2021-07-03T09:16:56.000Z</time>
      </trkpt>
      <trkpt lat="45.23739" lon="5.90678">
        <ele>571.03</ele>
        <time>2021-07-03T09:17:01.000Z</time>
      </trkpt>
      <trkpt lat="45.23731" lon="5.90696">
        <ele>571.66</ele>
        <time>2021-07-03T09:17:06.000Z</time>
      </trkpt>
      <trkpt lat="45.2372" lon="5.90728">
        <ele>573.73</ele>
        <time>2021-07-03T09:17:11.000Z</time>
      </trkpt>
      <trkpt lat="45.2371" lon="5.90752">
        <ele>577.95</ele>
        <time>2021-07-03T09:17:16.000Z</time>
      </trkpt>
      <trkpt lat="45.23702" lon="5.90776">
        <ele>579.52</ele>
        <time>2021-07-03T09:17:21.000Z</time>
      </trkpt>
      <trkpt lat="45.23693" lon="5.90802">
        <ele>586.07</ele>
        <time>2021-07-03T09:17:26.000Z</time>
      </trkpt>
      <trkpt lat="45.23679" lon="5.9082">
        <ele>588.77</ele>
        <time>2021-07-03T09:17:31.000Z</time>
      </trkpt>
      <trkpt lat="45.23669" lon="5.90836">
        <ele>591.52</ele>
        <time>2021-07-03T09:17:36.000Z</time>
      </trkpt>
      <trkpt lat="45.23653" lon="5.90856">
        <ele>592.09</ele>
        <time>2021-07-03T09:17:41.000Z</time>
      </trkpt>
      <trkpt lat="45.2364" lon="5.90882">
        <ele>593.08</ele>
        <time>2021-07-03T09:17:46.000Z</time>
      </trkpt>
      <trkpt lat="45.23625" lon="5.90907">
        <ele>594.36</ele>
        <time>2021-07-03T09:17:51.000Z</time>
      </trkpt>
      <trkpt lat="45.23613" lon="5.9093">
        <ele>593.2</ele>
        <time>2021-07-03T09:17:56.000Z</time>
      </trkpt>
      <trkpt lat="45.23601" lon="5.9095">
        <ele>593.83</ele>
        <time>2021-07-03T09:18:01.000Z</time>
      </trkpt>
      <trkpt lat="45.23587" lon="5.90972">
        <ele>596.9</ele>
        <time>2021-07-03T09:18:06.000Z</time>
      </trkpt>
      <trkpt lat="45.23571" lon="5.90989">
        <ele>596.74</ele>
        <time>2021-07-03T09:18:11.000Z</time>
      </trkpt>
      <trkpt lat="45.23554" lon="5.91005">
        <ele>596.89</ele>
        <time>2021-07-03T09:18:16.000Z</time>
      </trkpt>
      <trkpt lat="45.23538" lon="5.91022">
        <ele>600.67</ele>
        <time>2021-07-03T09:18:21.000Z</time>
      </trkpt>
      <trkpt lat="45.23526" lon="5.91041">
        <ele>602.92</ele>
        <time>2021-07-03T09:18:26.000Z</time>
      </trkpt>
      <trkpt lat="45.23516" lon="5.91064">
        <ele>608.31</ele>
        <time>2021-07-03T09:18:31.000Z</time>
      </trkpt>
      <trkpt lat="45.23503" lon="5.91089">
        <ele>611.27</ele>
        <time>2021-07-03T09:18:36.000Z</time>
      </trkpt>
      <trkpt lat="45.23486" lon="5.91112">
        <ele>614.9</ele>
        <time>2021-07-03T09:18:41.000Z</time>
      </trkpt>
      <trkpt lat="45.23474" lon="5.91135">
        <ele>616.3</ele>
        <time>2021-07-03T09:18:46.000Z</time>
      </trkpt>
      <trkpt lat="45.23459" lon="5.91156">
        <ele>617.95</ele>
        <time>2021-07-03T09:18:51.000Z</time>
      </trkpt>
      <trkpt lat="45.23442" lon="5.91166">
        <ele>623.17</ele>
        <time>2021-07-03T09:18:56.000Z</time>
      </trkpt>
      <trkpt lat="45.23427" lon="5.91169">
        <ele>623.7</ele>
        <time>2021-07-03T09:19:01.000Z</time>
      </trkpt>
      <trkpt lat="45.23408" lon="5.91176">
        <ele>622.53</ele>
        <time>2021-07-03T09:19:06.000Z</time>
      </trkpt>
      <trkpt lat="45.23395" lon="5.91201">
        <ele>624.22</ele>
        <time>2021-07-03T09:19:11.000Z</time>
      </trkpt>
      <trkpt lat="45.23397" lon="5.91232">
        <ele>624.21</ele>
        <time>2021-07-03T09:19:16.000Z</time>
      </trkpt>
      <trkpt lat="45.23394" lon="5.9126">
        <ele>623.69</ele>
        <time>2021-07-03T09:19:21.000Z</time>
      </trkpt>
      <trkpt lat="45.23383" lon="5.91283">
        <ele>629.03</ele>
        <time>2021-07-03T09:19:26.000Z</time>
      </trkpt>
      <trkpt lat="45.23371" lon="5.91308">
        <ele>627.79</ele>
        <time>2021-07-03T09:19:31.000Z</time>
      </trkpt>
      <trkpt lat="45.23358" lon="5.91333">
        <ele>629.57</ele>
        <time>2021-07-03T09:19:36.000Z</time>
      </trkpt>
      <trkpt lat="45.23344" lon="5.91358">
        <ele>631.53</ele>
        <time>2021-07-03T09:19:41.000Z</time>
      </trkpt>
      <trkpt lat="45.23331" lon="5.91378">
        <ele>632.72</ele>
        <time>2021-07-03T09:19:46.000Z</time>
      </trkpt>
      <trkpt lat="45.23312" lon="5.91392">
        <ele>630.68</ele>
        <time>2021-07-03T09:19:51.000Z</time>
      </trkpt>
      <trkpt lat="45.23291" lon="5.91391">
        <ele>632.22</ele>
        <time>2021-07-03T09:19:56.000Z</time>
      </trkpt>
      <trkpt lat="45.23271" lon="5.91383">
        <ele>635.19</ele>
        <time>2021-07-03T09:20:01.000Z</time>
      </trkpt>
      <trkpt lat="45.23252" lon="5.91376">
        <ele>635.3</ele>
        <time>2021-07-03T09:20:06.000Z</time>
      </trkpt>
      <trkpt lat="45.2323" lon="5.91382">
        <ele>638.12</ele>
        <time>2021-07-03T09:20:11.000Z</time>
      </trkpt>
      <trkpt lat="45.23212" lon="5.91383">
        <ele>640.08</ele>
        <time>2021-07-03T09:20:16.000Z</time>
      </trkpt>
      <trkpt lat="45.23194" lon="5.91382">
        <ele>638.17</ele>
        <time>2021-07-03T09:20:21.000Z</time>
      </trkpt>
      <trkpt lat="45.23176" lon="5.91385">
        <ele>639.35</ele>
        <time>2021-07-03T09:20:26.000Z</time>
      </trkpt>
      <trkpt lat="45.23164" lon="5.91399">
        <ele>642.27</ele>
        <time>2021-07-03T09:20:31.000Z</time>
      </trkpt>
      <trkpt lat="45.23144" lon="5.91416">
        <ele>640.16</ele>
        <time>2021-07-03T09:20:36.000Z</time>
      </trkpt>
      <trkpt lat="45.23124" lon="5.91423">
        <ele>642.02</ele>
        <time>2021-07-03T09:20:41.000Z</time>
      </trkpt>
      <trkpt lat="45.23111" lon="5.91431">
        <ele>643.87</ele>
        <time>2021-07-03T09:20:46.000Z</time>
      </trkpt>
      <trkpt lat="45.23099" lon="5.91458">
        <ele>650.08</ele>
        <time>2021-07-03T09:20:51.000Z</time>
      </trkpt>
      <trkpt lat="45.23084" lon="5.91496">
        <ele>651.91</ele>
        <time>2021-07-03T09:20:56.000Z</time>
      </trkpt>
      <trkpt lat="45.2308" lon="5.91531">
        <ele>653.59</ele>
        <time>2021-07-03T09:21:01.000Z</time>
      </trkpt>
      <trkpt lat="45.23092" lon="5.91558">
        <ele>656.99</ele>
        <time>2021-07-03T09:21:06.000Z</time>
      </trkpt>
      <trkpt lat="45.23103" lon="5.91588">
        <ele>661.34</ele>
        <time>2021-07-03T09:21:11.000Z</time>
      </trkpt>
      <trkpt lat="45.23112" lon="5.91615">
        <ele>664.8</ele>
        <time>2021-07-03T09:21:16.000Z</time>
      </trkpt>
      <trkpt lat="45.23121" lon="5.91642">
        <ele>666.94</ele>
        <time>2021-07-03T09:21:21.000Z</time>
      </trkpt>
      <trkpt lat="45.23126" lon="5.9167">
        <ele>668.15</ele>
        <time>2021-07-03T09:21:26.000Z</time>
      </trkpt>
      <trkpt lat="45.23117" lon="5.91698">
        <ele>667.27</ele>
        <time>2021-07-03T09:21:31.000Z</time>
      </trkpt>
      <trkpt lat="45.23107" lon="5.91721">
        <ele>669.38</ele>
        <time>2021-07-03T09:21:36.000Z</time>
      </trkpt>
      <trkpt lat="45.23099" lon="5.91744">
        <ele>671.41</ele>
        <time>2021-07-03T09:21:41.000Z</time>
      </trkpt>
      <trkpt lat="45.23089" lon="5.91769">
        <ele>673.37</ele>
        <time>2021-07-03T09:21:46.000Z</time>
      </trkpt>
      <trkpt lat="45.23079" lon="5.91794">
        <ele>676.55</ele>
        <time>2021-07-03T09:21:51.000Z</time>
      </trkpt>
      <trkpt lat="45.23071" lon="5.91821">
        <ele>679.53</ele>
        <time>2021-07-03T09:21:56.000Z</time>
      </trkpt>
      <trkpt lat="45.23064" lon="5.91847">
        <ele>681.02</ele>
        <time>2021-07-03T09:22:01.000Z</time>
      </trkpt>
      <trkpt lat="45.23052" lon="5.91875">
        <ele>683.63</ele>
        <time>2021-07-03T09:22:06.000Z</time>
      </trkpt>
      <trkpt lat="45.23044" lon="5.91901">
        <ele>685.05</ele>
        <time>2021-07-03T09:22:11.000Z</time>
      </trkpt>
      <trkpt lat="45.23034" lon="5.91928">
        <ele>687.6</ele>
        <time>2021-07-03T09:22:16.000Z</time>
      </trkpt>
      <trkpt lat="45.23022" lon="5.91952">
        <ele>688.41</ele>
        <time>2021-07-03T09:22:21.000Z</time>
      </trkpt>
      <trkpt lat="45.23009" lon="5.91974">
        <ele>690.58</ele>
        <time>2021-07-03T09:22:26.000Z</time>
      </trkpt>
      <trkpt lat="45.22995" lon="5.91996">
        <ele>690.74</ele>
        <time>2021-07-03T09:22:31.000Z</time>
      </trkpt>
      <trkpt lat="45.22981" lon="5.92017">
        <ele>696.1</ele>
        <time>2021-07-03T09:22:36.000Z</time>
      </trkpt>
      <trkpt lat="45.22966" lon="5.92035">
        <ele>699.51</ele>
        <time>2021-07-03T09:22:41.000Z</time>
      </trkpt>
      <trkpt lat="45.2295" lon="5.92051">
        <ele>707.35</ele>
        <time>2021-07-03T09:22:46.000Z</time>
      </trkpt>
      <trkpt lat="45.22932" lon="5.92067">
        <ele>707.93</ele>
        <time>2021-07-03T09:22:51.000Z</time>
      </trkpt>
      <trkpt lat="45.22908" lon="5.92073">
        <ele>709.63</ele>
        <time>2021-07-03T09:22:56.000Z</time>
      </trkpt>
      <trkpt lat="45.22888" lon="5.92066">
        <ele>706.99</ele>
        <time>2021-07-03T09:23:01.000Z</time>
      </trkpt>
      <trkpt lat="45.22867" lon="5.92057">
        <ele>708.59</ele>
        <time>2021-07-03T09:23:06.000Z</time>
      </trkpt>
      <trkpt lat="45.2285" lon="5.9206">
        <ele>709.71</ele>
        <time>2021-07-03T09:23:11.000Z</time>
      </trkpt>
      <trkpt lat="45.22839" lon="5.92083">
        <ele>708.68</ele>
        <time>2021-07-03T09:23:16.000Z</time>
      </trkpt>
      <trkpt lat="45.2284" lon="5.92109">
        <ele>706.58</ele>
        <time>2021-07-03T09:23:21.000Z</time>
      </trkpt>
      <trkpt lat="45.22839" lon="5.92137">
        <ele>710.07</ele>
        <time>2021-07-03T09:23:26.000Z</time>
      </trkpt>
      <trkpt lat="45.22828" lon="5.92162">
        <ele>715.47</ele>
        <time>2021-07-03T09:23:31.000Z</time>
      </trkpt>
      <trkpt lat="45.22815" lon="5.92183">
        <ele>720.02</ele>
        <time>2021-07-03T09:23:36.000Z</time>
      </trkpt>
      <trkpt lat="45.22801" lon="5.92205">
        <ele>723.74</ele>
        <time>2021-07-03T09:23:41.000Z</time>
      </trkpt>
      <trkpt lat="45.22786" lon="5.92227">
        <ele>727.05</ele>
        <time>2021-07-03T09:23:46.000Z</time>
      </trkpt>
      <trkpt lat="45.22772" lon="5.92249">
        <ele>728.01</ele>
        <time>2021-07-03T09:23:51.000Z</time>
      </trkpt>
      <trkpt lat="45.2276" lon="5.9227">
        <ele>728.05</ele>
        <time>2021-07-03T09:23:56.000Z</time>
      </trkpt>
      <trkpt lat="45.22749" lon="5.92292">
        <ele>730.62</ele>
        <time>2021-07-03T09:24:01.000Z</time>
      </trkpt>
      <trkpt lat="45.22736" lon="5.92315">
        <ele>732.19</ele>
        <time>2021-07-03T09:24:06.000Z</time>
      </trkpt>
      <trkpt lat="45.22721" lon="5.92336">
        <ele>731.14</ele>
        <time>2021-07-03T09:24:11.000Z</time>
      </trkpt>
      <trkpt lat="45.22718" lon="5.92318">
        <ele>728.97</ele>
        <time>2021-07-03T09:24:16.000Z</time>
      </trkpt>
      <trkpt lat="45.22724" lon="5.92293">
        <ele>729.88</ele>
        <time>2021-07-03T09:24:21.000Z</time>
      </trkpt>
      <trkpt lat="45.22723" lon="5.92262">
        <ele>731.47</ele>
        <time>2021-07-03T09:24:26.000Z</time>
      </trkpt>
      <trkpt lat="45.22722" lon="5.92243">
        <ele>734.26</ele>
        <time>2021-07-03T09:24:31.000Z</time>
      </trkpt>
      <trkpt lat="45.22726" lon="5.92222">
        <ele>737.16</ele>
        <time>2021-07-03T09:24:36.000Z</time>
      </trkpt>
      <trkpt lat="45.22731" lon="5.92205">
        <ele>739.14</ele>
        <time>2021-07-03T09:24:41.000Z</time>
      </trkpt>
      <trkpt lat="45.22735" lon="5.92191">
        <ele>739.45</ele>
        <time>2021-07-03T09:24:46.000Z</time>
      </trkpt>
      <trkpt lat="45.22744" lon="5.92172">
        <ele>739.46</ele>
        <time>2021-07-03T09:24:51.000Z</time>
      </trkpt>
      <trkpt lat="45.22754" lon="5.92151">
        <ele>738.9</ele>
        <time>2021-07-03T09:24:56.000Z</time>
      </trkpt>
      <trkpt lat="45.22765" lon="5.92126">
        <ele>738.23</ele>
        <time>2021-07-03T09:25:01.000Z</time>
      </trkpt>
      <trkpt lat="45.22773" lon="5.92099">
        <ele>736.78</ele>
        <time>2021-07-03T09:25:06.000Z</time>
      </trkpt>
      <trkpt lat="45.22781" lon="5.92075">
        <ele>738.53</ele>
        <time>2021-07-03T09:25:11.000Z</time>
      </trkpt>
      <trkpt lat="45.22781" lon="5.9205">
        <ele>741.14</ele>
        <time>2021-07-03T09:25:16.000Z</time>
      </trkpt>
      <trkpt lat="45.22777" lon="5.92027">
        <ele>739.79</ele>
        <time>2021-07-03T09:25:21.000Z</time>
      </trkpt>
      <trkpt lat="45.22771" lon="5.91999">
        <ele>734.3</ele>
        <time>2021-07-03T09:25:26.000Z</time>
      </trkpt>
      <trkpt lat="45.22767" lon="5.91978">
        <ele>730.94</ele>
        <time>2021-07-03T09:25:31.000Z</time>
      </trkpt>
      <trkpt lat="45.22769" lon="5.91966">
        <ele>741.98</ele>
        <time>2021-07-03T09:27:15.000Z</time>
      </trkpt>
      <trkpt lat="45.22777" lon="5.91956">
        <ele>741.68</ele>
        <time>2021-07-03T09:27:45.000Z</time>
      </trkpt>
      <trkpt lat="45.22788" lon="5.9195">
        <ele>741.03</ele>
        <time>2021-07-03T09:27:51.000Z</time>
      </trkpt>
      <trkpt lat="45.228" lon="5.91945">
        <ele>740.07</ele>
        <time>2021-07-03T09:27:56.000Z</time>
      </trkpt>
      <trkpt lat="45.22809" lon="5.91946">
        <ele>743.67</ele>
        <time>2021-07-03T09:28:10.000Z</time>
      </trkpt>
      <trkpt lat="45.22826" lon="5.9194">
        <ele>746.53</ele>
        <time>2021-07-03T09:28:15.000Z</time>
      </trkpt>
      <trkpt lat="45.22843" lon="5.91931">
        <ele>745.72</ele>
        <time>2021-07-03T09:28:20.000Z</time>
      </trkpt>
      <trkpt lat="45.22859" lon="5.91917">
        <ele>745.95</ele>
        <time>2021-07-03T09:28:25.000Z</time>
      </trkpt>
      <trkpt lat="45.2287" lon="5.91902">
        <ele>746.25</ele>
        <time>2021-07-03T09:28:30.000Z</time>
      </trkpt>
      <trkpt lat="45.22883" lon="5.91884">
        <ele>746.67</ele>
        <time>2021-07-03T09:28:35.000Z</time>
      </trkpt>
      <trkpt lat="45.22897" lon="5.91865">
        <ele>745.58</ele>
        <time>2021-07-03T09:28:40.000Z</time>
      </trkpt>
      <trkpt lat="45.2291" lon="5.91844">
        <ele>746.68</ele>
        <time>2021-07-03T09:28:45.000Z</time>
      </trkpt>
      <trkpt lat="45.22924" lon="5.91822">
        <ele>745.96</ele>
        <time>2021-07-03T09:28:50.000Z</time>
      </trkpt>
      <trkpt lat="45.22936" lon="5.91795">
        <ele>744.22</ele>
        <time>2021-07-03T09:28:55.000Z</time>
      </trkpt>
      <trkpt lat="45.22953" lon="5.91773">
        <ele>742.94</ele>
        <time>2021-07-03T09:29:00.000Z</time>
      </trkpt>
      <trkpt lat="45.22968" lon="5.91745">
        <ele>742.33</ele>
        <time>2021-07-03T09:29:05.000Z</time>
      </trkpt>
      <trkpt lat="45.22969" lon="5.91717">
        <ele>740.59</ele>
        <time>2021-07-03T09:29:10.000Z</time>
      </trkpt>
      <trkpt lat="45.22971" lon="5.91686">
        <ele>739.73</ele>
        <time>2021-07-03T09:29:15.000Z</time>
      </trkpt>
      <trkpt lat="45.22974" lon="5.91656">
        <ele>740.93</ele>
        <time>2021-07-03T09:29:20.000Z</time>
      </trkpt>
      <trkpt lat="45.22979" lon="5.91624">
        <ele>746.21</ele>
        <time>2021-07-03T09:29:25.000Z</time>
      </trkpt>
      <trkpt lat="45.22978" lon="5.9159">
        <ele>745.11</ele>
        <time>2021-07-03T09:29:30.000Z</time>
      </trkpt>
      <trkpt lat="45.22967" lon="5.91558">
        <ele>746.5</ele>
        <time>2021-07-03T09:29:35.000Z</time>
      </trkpt>
      <trkpt lat="45.22953" lon="5.9153">
        <ele>751.2</ele>
        <time>2021-07-03T09:29:40.000Z</time>
      </trkpt>
      <trkpt lat="45.22956" lon="5.9149">
        <ele>752.7</ele>
        <time>2021-07-03T09:29:45.000Z</time>
      </trkpt>
      <trkpt lat="45.22957" lon="5.91455">
        <ele>749.79</ele>
        <time>2021-07-03T09:29:50.000Z</time>
      </trkpt>
      <trkpt lat="45.22961" lon="5.91422">
        <ele>746.85</ele>
        <time>2021-07-03T09:29:55.000Z</time>
      </trkpt>
      <trkpt lat="45.22974" lon="5.91397">
        <ele>747.11</ele>
        <time>2021-07-03T09:30:00.000Z</time>
      </trkpt>
      <trkpt lat="45.22985" lon="5.91368">
        <ele>748.77</ele>
        <time>2021-07-03T09:30:05.000Z</time>
      </trkpt>
      <trkpt lat="45.23001" lon="5.91343">
        <ele>750.92</ele>
        <time>2021-07-03T09:30:10.000Z</time>
      </trkpt>
      <trkpt lat="45.23023" lon="5.91308">
        <ele>747.89</ele>
        <time>2021-07-03T09:30:15.000Z</time>
      </trkpt>
      <trkpt lat="45.23056" lon="5.91269">
        <ele>747.82</ele>
        <time>2021-07-03T09:30:20.000Z</time>
      </trkpt>
      <trkpt lat="45.23091" lon="5.91234">
        <ele>745.42</ele>
        <time>2021-07-03T09:30:25.000Z</time>
      </trkpt>
      <trkpt lat="45.23136" lon="5.91202">
        <ele>743.71</ele>
        <time>2021-07-03T09:30:30.000Z</time>
      </trkpt>
      <trkpt lat="45.23194" lon="5.9116">
        <ele>737.42</ele>
        <time>2021-07-03T09:30:35.000Z</time>
      </trkpt>
      <trkpt lat="45.23226" lon="5.91074">
        <ele>728.43</ele>
        <time>2021-07-03T09:30:40.000Z</time>
      </trkpt>
      <trkpt lat="45.23284" lon="5.91016">
        <ele>727.37</ele>
        <time>2021-07-03T09:30:45.000Z</time>
      </trkpt>
      <trkpt lat="45.23331" lon="5.9094">
        <ele>724.9</ele>
        <time>2021-07-03T09:30:50.000Z</time>
      </trkpt>
      <trkpt lat="45.23363" lon="5.90838">
        <ele>715.96</ele>
        <time>2021-07-03T09:30:55.000Z</time>
      </trkpt>
      <trkpt lat="45.23399" lon="5.90744">
        <ele>708.54</ele>
        <time>2021-07-03T09:31:00.000Z</time>
      </trkpt>
      <trkpt lat="45.23435" lon="5.90655">
        <ele>708.03</ele>
        <time>2021-07-03T09:31:05.000Z</time>
      </trkpt>
      <trkpt lat="45.23467" lon="5.90572">
        <ele>711.1</ele>
        <time>2021-07-03T09:31:10.000Z</time>
      </trkpt>
      <trkpt lat="45.23482" lon="5.90494">
        <ele>705.28</ele>
        <time>2021-07-03T09:31:15.000Z</time>
      </trkpt>
      <trkpt lat="45.23492" lon="5.90428">
        <ele>706.11</ele>
        <time>2021-07-03T09:31:20.000Z</time>
      </trkpt>
      <trkpt lat="45.23498" lon="5.90368">
        <ele>706.54</ele>
        <time>2021-07-03T09:31:25.000Z</time>
      </trkpt>
      <trkpt lat="45.23496" lon="5.90311">
        <ele>704.97</ele>
        <time>2021-07-03T09:31:30.000Z</time>
      </trkpt>
      <trkpt lat="45.23473" lon="5.90271">
        <ele>703.1</ele>
        <time>2021-07-03T09:31:35.000Z</time>
      </trkpt>
      <trkpt lat="45.23453" lon="5.90253">
        <ele>703.41</ele>
        <time>2021-07-03T09:31:40.000Z</time>
      </trkpt>
      <trkpt lat="45.23443" lon="5.9025">
        <ele>704.37</ele>
        <time>2021-07-03T09:33:08.000Z</time>
      </trkpt>
      <trkpt lat="45.23425" lon="5.90256">
        <ele>703.63</ele>
        <time>2021-07-03T09:33:13.000Z</time>
      </trkpt>
      <trkpt lat="45.23397" lon="5.90269">
        <ele>703.87</ele>
        <time>2021-07-03T09:33:18.000Z</time>
      </trkpt>
      <trkpt lat="45.23363" lon="5.90282">
        <ele>697.98</ele>
        <time>2021-07-03T09:33:23.000Z</time>
      </trkpt>
      <trkpt lat="45.23324" lon="5.90302">
        <ele>696.71</ele>
        <time>2021-07-03T09:33:28.000Z</time>
      </trkpt>
      <trkpt lat="45.2328" lon="5.90326">
        <ele>691.98</ele>
        <time>2021-07-03T09:33:33.000Z</time>
      </trkpt>
      <trkpt lat="45.23235" lon="5.9033">
        <ele>689.07</ele>
        <time>2021-07-03T09:33:38.000Z</time>
      </trkpt>
      <trkpt lat="45.23191" lon="5.90326">
        <ele>689.52</ele>
        <time>2021-07-03T09:33:43.000Z</time>
      </trkpt>
      <trkpt lat="45.23147" lon="5.90324">
        <ele>691.11</ele>
        <time>2021-07-03T09:33:48.000Z</time>
      </trkpt>
      <trkpt lat="45.23107" lon="5.90316">
        <ele>694.78</ele>
        <time>2021-07-03T09:33:53.000Z</time>
      </trkpt>
      <trkpt lat="45.2307" lon="5.90323">
        <ele>689.25</ele>
        <time>2021-07-03T09:33:58.000Z</time>
      </trkpt>
      <trkpt lat="45.23034" lon="5.90336">
        <ele>686.35</ele>
        <time>2021-07-03T09:34:03.000Z</time>
      </trkpt>
      <trkpt lat="45.22993" lon="5.9035">
        <ele>687.3</ele>
        <time>2021-07-03T09:34:08.000Z</time>
      </trkpt>
      <trkpt lat="45.22955" lon="5.90372">
        <ele>683.41</ele>
        <time>2021-07-03T09:34:13.000Z</time>
      </trkpt>
      <trkpt lat="45.2293" lon="5.90335">
        <ele>683.22</ele>
        <time>2021-07-03T09:34:18.000Z</time>
      </trkpt>
      <trkpt lat="45.22918" lon="5.90313">
        <ele>682.62</ele>
        <time>2021-07-03T09:34:23.000Z</time>
      </trkpt>
      <trkpt lat="45.22902" lon="5.90295">
        <ele>684.01</ele>
        <time>2021-07-03T09:34:28.000Z</time>
      </trkpt>
      <trkpt lat="45.22884" lon="5.90274">
        <ele>688.58</ele>
        <time>2021-07-03T09:34:33.000Z</time>
      </trkpt>
      <trkpt lat="45.22864" lon="5.90257">
        <ele>692.44</ele>
        <time>2021-07-03T09:34:38.000Z</time>
      </trkpt>
      <trkpt lat="45.22841" lon="5.90243">
        <ele>691.2</ele>
        <time>2021-07-03T09:34:43.000Z</time>
      </trkpt>
      <trkpt lat="45.22816" lon="5.90241">
        <ele>692.11</ele>
        <time>2021-07-03T09:34:48.000Z</time>
      </trkpt>
      <trkpt lat="45.22788" lon="5.90242">
        <ele>692.18</ele>
        <time>2021-07-03T09:34:53.000Z</time>
      </trkpt>
      <trkpt lat="45.2276" lon="5.90244">
        <ele>692.95</ele>
        <time>2021-07-03T09:34:58.000Z</time>
      </trkpt>
      <trkpt lat="45.22732" lon="5.90246">
        <ele>694.78</ele>
        <time>2021-07-03T09:35:03.000Z</time>
      </trkpt>
      <trkpt lat="45.22706" lon="5.90246">
        <ele>692.77</ele>
        <time>2021-07-03T09:35:08.000Z</time>
      </trkpt>
      <trkpt lat="45.22673" lon="5.90256">
        <ele>695.12</ele>
        <time>2021-07-03T09:35:13.000Z</time>
      </trkpt>
      <trkpt lat="45.22642" lon="5.90272">
        <ele>695.5</ele>
        <time>2021-07-03T09:35:18.000Z</time>
      </trkpt>
      <trkpt lat="45.22622" lon="5.90299">
        <ele>697.33</ele>
        <time>2021-07-03T09:35:23.000Z</time>
      </trkpt>
      <trkpt lat="45.22608" lon="5.90332">
        <ele>697.95</ele>
        <time>2021-07-03T09:35:28.000Z</time>
      </trkpt>
      <trkpt lat="45.22596" lon="5.9037">
        <ele>698.05</ele>
        <time>2021-07-03T09:35:33.000Z</time>
      </trkpt>
      <trkpt lat="45.22588" lon="5.9041">
        <ele>698.75</ele>
        <time>2021-07-03T09:35:38.000Z</time>
      </trkpt>
      <trkpt lat="45.2258" lon="5.90454">
        <ele>695.9</ele>
        <time>2021-07-03T09:35:43.000Z</time>
      </trkpt>
      <trkpt lat="45.22574" lon="5.90496">
        <ele>696.37</ele>
        <time>2021-07-03T09:35:48.000Z</time>
      </trkpt>
      <trkpt lat="45.22555" lon="5.90519">
        <ele>696.48</ele>
        <time>2021-07-03T09:35:53.000Z</time>
      </trkpt>
      <trkpt lat="45.22531" lon="5.90488">
        <ele>697.37</ele>
        <time>2021-07-03T09:35:58.000Z</time>
      </trkpt>
      <trkpt lat="45.22518" lon="5.90454">
        <ele>697.6</ele>
        <time>2021-07-03T09:36:03.000Z</time>
      </trkpt>
      <trkpt lat="45.22508" lon="5.90424">
        <ele>697.64</ele>
        <time>2021-07-03T09:36:08.000Z</time>
      </trkpt>
      <trkpt lat="45.22487" lon="5.90403">
        <ele>702.92</ele>
        <time>2021-07-03T09:36:13.000Z</time>
      </trkpt>
      <trkpt lat="45.22465" lon="5.90386">
        <ele>704.61</ele>
        <time>2021-07-03T09:36:18.000Z</time>
      </trkpt>
      <trkpt lat="45.22447" lon="5.90364">
        <ele>706.19</ele>
        <time>2021-07-03T09:36:23.000Z</time>
      </trkpt>
      <trkpt lat="45.22428" lon="5.90339">
        <ele>706.19</ele>
        <time>2021-07-03T09:36:28.000Z</time>
      </trkpt>
      <trkpt lat="45.22411" lon="5.90315">
        <ele>706.86</ele>
        <time>2021-07-03T09:36:33.000Z</time>
      </trkpt>
      <trkpt lat="45.22398" lon="5.90286">
        <ele>707.54</ele>
        <time>2021-07-03T09:36:38.000Z</time>
      </trkpt>
      <trkpt lat="45.22383" lon="5.90254">
        <ele>708.63</ele>
        <time>2021-07-03T09:36:43.000Z</time>
      </trkpt>
      <trkpt lat="45.22375" lon="5.90226">
        <ele>711.04</ele>
        <time>2021-07-03T09:36:48.000Z</time>
      </trkpt>
      <trkpt lat="45.22355" lon="5.90198">
        <ele>710.08</ele>
        <time>2021-07-03T09:36:53.000Z</time>
      </trkpt>
      <trkpt lat="45.22335" lon="5.90174">
        <ele>710.46</ele>
        <time>2021-07-03T09:36:58.000Z</time>
      </trkpt>
      <trkpt lat="45.22314" lon="5.90153">
        <ele>708.83</ele>
        <time>2021-07-03T09:37:03.000Z</time>
      </trkpt>
      <trkpt lat="45.22289" lon="5.90138">
        <ele>711.64</ele>
        <time>2021-07-03T09:37:08.000Z</time>
      </trkpt>
      <trkpt lat="45.22263" lon="5.90125">
        <ele>711.77</ele>
        <time>2021-07-03T09:37:13.000Z</time>
      </trkpt>
      <trkpt lat="45.22237" lon="5.90114">
        <ele>712.92</ele>
        <time>2021-07-03T09:37:18.000Z</time>
      </trkpt>
      <trkpt lat="45.22211" lon="5.90123">
        <ele>714.51</ele>
        <time>2021-07-03T09:37:23.000Z</time>
      </trkpt>
      <trkpt lat="45.22191" lon="5.90146">
        <ele>713.98</ele>
        <time>2021-07-03T09:37:28.000Z</time>
      </trkpt>
      <trkpt lat="45.22172" lon="5.90177">
        <ele>713.06</ele>
        <time>2021-07-03T09:37:33.000Z</time>
      </trkpt>
      <trkpt lat="45.22149" lon="5.90203">
        <ele>715.87</ele>
        <time>2021-07-03T09:37:38.000Z</time>
      </trkpt>
      <trkpt lat="45.22123" lon="5.90219">
        <ele>716.41</ele>
        <time>2021-07-03T09:37:43.000Z</time>
      </trkpt>
      <trkpt lat="45.22097" lon="5.90241">
        <ele>713.16</ele>
        <time>2021-07-03T09:37:48.000Z</time>
      </trkpt>
      <trkpt lat="45.22067" lon="5.90251">
        <ele>711.24</ele>
        <time>2021-07-03T09:37:53.000Z</time>
      </trkpt>
      <trkpt lat="45.22034" lon="5.90248">
        <ele>713.74</ele>
        <time>2021-07-03T09:37:58.000Z</time>
      </trkpt>
      <trkpt lat="45.22007" lon="5.90235">
        <ele>715.44</ele>
        <time>2021-07-03T09:38:03.000Z</time>
      </trkpt>
      <trkpt lat="45.21982" lon="5.90222">
        <ele>713.64</ele>
        <time>2021-07-03T09:38:08.000Z</time>
      </trkpt>
      <trkpt lat="45.21965" lon="5.90204">
        <ele>711.15</ele>
        <time>2021-07-03T09:38:13.000Z</time>
      </trkpt>
      <trkpt lat="45.21947" lon="5.90181">
        <ele>712.03</ele>
        <time>2021-07-03T09:38:18.000Z</time>
      </trkpt>
      <trkpt lat="45.21933" lon="5.90155">
        <ele>714.32</ele>
        <time>2021-07-03T09:38:23.000Z</time>
      </trkpt>
      <trkpt lat="45.21926" lon="5.90122">
        <ele>714.32</ele>
        <time>2021-07-03T09:38:28.000Z</time>
      </trkpt>
      <trkpt lat="45.21935" lon="5.90094">
        <ele>715.76</ele>
        <time>2021-07-03T09:38:33.000Z</time>
      </trkpt>
      <trkpt lat="45.21935" lon="5.90063">
        <ele>719.46</ele>
        <time>2021-07-03T09:38:38.000Z</time>
      </trkpt>
      <trkpt lat="45.21919" lon="5.90037">
        <ele>717.91</ele>
        <time>2021-07-03T09:38:43.000Z</time>
      </trkpt>
      <trkpt lat="45.21901" lon="5.90018">
        <ele>713.89</ele>
        <time>2021-07-03T09:38:48.000Z</time>
      </trkpt>
      <trkpt lat="45.21879" lon="5.90002">
        <ele>718.09</ele>
        <time>2021-07-03T09:38:53.000Z</time>
      </trkpt>
      <trkpt lat="45.21856" lon="5.8999">
        <ele>720.71</ele>
        <time>2021-07-03T09:38:58.000Z</time>
      </trkpt>
      <trkpt lat="45.21832" lon="5.8998">
        <ele>720.95</ele>
        <time>2021-07-03T09:39:03.000Z</time>
      </trkpt>
      <trkpt lat="45.21807" lon="5.8997">
        <ele>722.83</ele>
        <time>2021-07-03T09:39:08.000Z</time>
      </trkpt>
      <trkpt lat="45.21781" lon="5.89956">
        <ele>722.49</ele>
        <time>2021-07-03T09:39:13.000Z</time>
      </trkpt>
      <trkpt lat="45.21759" lon="5.89939">
        <ele>722.89</ele>
        <time>2021-07-03T09:39:18.000Z</time>
      </trkpt>
      <trkpt lat="45.21733" lon="5.89927">
        <ele>722.79</ele>
        <time>2021-07-03T09:39:23.000Z</time>
      </trkpt>
      <trkpt lat="45.2171" lon="5.89911">
        <ele>722.33</ele>
        <time>2021-07-03T09:39:28.000Z</time>
      </trkpt>
      <trkpt lat="45.21692" lon="5.89891">
        <ele>728.34</ele>
        <time>2021-07-03T09:39:33.000Z</time>
      </trkpt>
      <trkpt lat="45.21664" lon="5.89871">
        <ele>726.62</ele>
        <time>2021-07-03T09:39:38.000Z</time>
      </trkpt>
      <trkpt lat="45.21639" lon="5.8985">
        <ele>721.72</ele>
        <time>2021-07-03T09:39:43.000Z</time>
      </trkpt>
      <trkpt lat="45.21616" lon="5.89827">
        <ele>727.48</ele>
        <time>2021-07-03T09:39:48.000Z</time>
      </trkpt>
      <trkpt lat="45.2159" lon="5.89809">
        <ele>728.36</ele>
        <time>2021-07-03T09:39:53.000Z</time>
      </trkpt>
      <trkpt lat="45.21566" lon="5.89793">
        <ele>730.82</ele>
        <time>2021-07-03T09:39:58.000Z</time>
      </trkpt>
      <trkpt lat="45.21543" lon="5.89775">
        <ele>733.37</ele>
        <time>2021-07-03T09:40:03.000Z</time>
      </trkpt>
      <trkpt lat="45.21517" lon="5.89758">
        <ele>734.98</ele>
        <time>2021-07-03T09:40:08.000Z</time>
      </trkpt>
      <trkpt lat="45.21492" lon="5.89741">
        <ele>735.46</ele>
        <time>2021-07-03T09:40:13.000Z</time>
      </trkpt>
      <trkpt lat="45.21469" lon="5.89726">
        <ele>735.24</ele>
        <time>2021-07-03T09:40:18.000Z</time>
      </trkpt>
      <trkpt lat="45.21443" lon="5.89722">
        <ele>737.35</ele>
        <time>2021-07-03T09:40:23.000Z</time>
      </trkpt>
      <trkpt lat="45.21417" lon="5.89723">
        <ele>738.04</ele>
        <time>2021-07-03T09:40:28.000Z</time>
      </trkpt>
      <trkpt lat="45.21392" lon="5.89731">
        <ele>736.2</ele>
        <time>2021-07-03T09:40:33.000Z</time>
      </trkpt>
      <trkpt lat="45.2137" lon="5.89747">
        <ele>741.29</ele>
        <time>2021-07-03T09:40:38.000Z</time>
      </trkpt>
      <trkpt lat="45.21343" lon="5.89762">
        <ele>743.85</ele>
        <time>2021-07-03T09:40:43.000Z</time>
      </trkpt>
      <trkpt lat="45.21319" lon="5.89776">
        <ele>741.13</ele>
        <time>2021-07-03T09:40:48.000Z</time>
      </trkpt>
      <trkpt lat="45.21294" lon="5.89787">
        <ele>743.59</ele>
        <time>2021-07-03T09:40:53.000Z</time>
      </trkpt>
      <trkpt lat="45.2127" lon="5.89788">
        <ele>744.07</ele>
        <time>2021-07-03T09:40:58.000Z</time>
      </trkpt>
      <trkpt lat="45.21244" lon="5.89794">
        <ele>742.64</ele>
        <time>2021-07-03T09:41:03.000Z</time>
      </trkpt>
      <trkpt lat="45.21231" lon="5.89788">
        <ele>743.15</ele>
        <time>2021-07-03T09:41:08.000Z</time>
      </trkpt>
      <trkpt lat="45.21214" lon="5.89779">
        <ele>744.26</ele>
        <time>2021-07-03T09:41:13.000Z</time>
      </trkpt>
      <trkpt lat="45.21202" lon="5.89769">
        <ele>746.91</ele>
        <time>2021-07-03T09:41:18.000Z</time>
      </trkpt>
      <trkpt lat="45.21184" lon="5.89761">
        <ele>748.71</ele>
        <time>2021-07-03T09:41:23.000Z</time>
      </trkpt>
      <trkpt lat="45.21167" lon="5.89754">
        <ele>747.93</ele>
        <time>2021-07-03T09:41:28.000Z</time>
      </trkpt>
      <trkpt lat="45.2115" lon="5.89757">
        <ele>745.04</ele>
        <time>2021-07-03T09:41:33.000Z</time>
      </trkpt>
      <trkpt lat="45.21133" lon="5.89767">
        <ele>742.66</ele>
        <time>2021-07-03T09:41:38.000Z</time>
      </trkpt>
      <trkpt lat="45.21118" lon="5.89777">
        <ele>742.54</ele>
        <time>2021-07-03T09:41:43.000Z</time>
      </trkpt>
      <trkpt lat="45.21105" lon="5.89784">
        <ele>743.18</ele>
        <time>2021-07-03T09:41:48.000Z</time>
      </trkpt>
      <trkpt lat="45.21096" lon="5.89787">
        <ele>744.51</ele>
        <time>2021-07-03T09:42:12.000Z</time>
      </trkpt>
      <trkpt lat="45.21087" lon="5.89779">
        <ele>747.63</ele>
        <time>2021-07-03T09:43:12.000Z</time>
      </trkpt>
      <trkpt lat="45.21076" lon="5.89771">
        <ele>750.38</ele>
        <time>2021-07-03T09:43:17.000Z</time>
      </trkpt>
      <trkpt lat="45.21068" lon="5.89764">
        <ele>750.45</ele>
        <time>2021-07-03T09:43:22.000Z</time>
      </trkpt>
      <trkpt lat="45.21051" lon="5.89757">
        <ele>751.62</ele>
        <time>2021-07-03T09:43:27.000Z</time>
      </trkpt>
      <trkpt lat="45.21023" lon="5.89771">
        <ele>753.21</ele>
        <time>2021-07-03T09:43:32.000Z</time>
      </trkpt>
      <trkpt lat="45.20996" lon="5.8978">
        <ele>753.98</ele>
        <time>2021-07-03T09:43:37.000Z</time>
      </trkpt>
      <trkpt lat="45.20974" lon="5.89773">
        <ele>750.36</ele>
        <time>2021-07-03T09:43:42.000Z</time>
      </trkpt>
      <trkpt lat="45.20967" lon="5.89749">
        <ele>747.94</ele>
        <time>2021-07-03T09:43:47.000Z</time>
      </trkpt>
      <trkpt lat="45.20971" lon="5.89723">
        <ele>748.46</ele>
        <time>2021-07-03T09:43:52.000Z</time>
      </trkpt>
      <trkpt lat="45.20987" lon="5.89702">
        <ele>751.44</ele>
        <time>2021-07-03T09:43:57.000Z</time>
      </trkpt>
      <trkpt lat="45.21" lon="5.89677">
        <ele>748.63</ele>
        <time>2021-07-03T09:44:02.000Z</time>
      </trkpt>
      <trkpt lat="45.21014" lon="5.89648">
        <ele>749.9</ele>
        <time>2021-07-03T09:44:07.000Z</time>
      </trkpt>
      <trkpt lat="45.21023" lon="5.89616">
        <ele>750.86</ele>
        <time>2021-07-03T09:44:12.000Z</time>
      </trkpt>
      <trkpt lat="45.21025" lon="5.89578">
        <ele>752.2</ele>
        <time>2021-07-03T09:44:17.000Z</time>
      </trkpt>
      <trkpt lat="45.21026" lon="5.89536">
        <ele>753.64</ele>
        <time>2021-07-03T09:44:22.000Z</time>
      </trkpt>
      <trkpt lat="45.21029" lon="5.89491">
        <ele>752.78</ele>
        <time>2021-07-03T09:44:27.000Z</time>
      </trkpt>
      <trkpt lat="45.21045" lon="5.89454">
        <ele>751.88</ele>
        <time>2021-07-03T09:44:32.000Z</time>
      </trkpt>
      <trkpt lat="45.21063" lon="5.89417">
        <ele>749.55</ele>
        <time>2021-07-03T09:44:37.000Z</time>
      </trkpt>
      <trkpt lat="45.21085" lon="5.89378">
        <ele>753.55</ele>
        <time>2021-07-03T09:44:42.000Z</time>
      </trkpt>
      <trkpt lat="45.21107" lon="5.89343">
        <ele>755.31</ele>
        <time>2021-07-03T09:44:47.000Z</time>
      </trkpt>
      <trkpt lat="45.2113" lon="5.89317">
        <ele>760.41</ele>
        <time>2021-07-03T09:44:52.000Z</time>
      </trkpt>
      <trkpt lat="45.21151" lon="5.89304">
        <ele>763.4</ele>
        <time>2021-07-03T09:44:57.000Z</time>
      </trkpt>
      <trkpt lat="45.21173" lon="5.89294">
        <ele>763.04</ele>
        <time>2021-07-03T09:45:02.000Z</time>
      </trkpt>
      <trkpt lat="45.2119" lon="5.8927">
        <ele>765.16</ele>
        <time>2021-07-03T09:45:07.000Z</time>
      </trkpt>
      <trkpt lat="45.21202" lon="5.89234">
        <ele>764.39</ele>
        <time>2021-07-03T09:45:12.000Z</time>
      </trkpt>
      <trkpt lat="45.21216" lon="5.89207">
        <ele>764.26</ele>
        <time>2021-07-03T09:45:17.000Z</time>
      </trkpt>
      <trkpt lat="45.21234" lon="5.89192">
        <ele>766.14</ele>
        <time>2021-07-03T09:45:22.000Z</time>
      </trkpt>
      <trkpt lat="45.21261" lon="5.89172">
        <ele>767.95</ele>
        <time>2021-07-03T09:45:27.000Z</time>
      </trkpt>
      <trkpt lat="45.21283" lon="5.89158">
        <ele>771.65</ele>
        <time>2021-07-03T09:45:32.000Z</time>
      </trkpt>
      <trkpt lat="45.21307" lon="5.89146">
        <ele>772.87</ele>
        <time>2021-07-03T09:45:37.000Z</time>
      </trkpt>
      <trkpt lat="45.21331" lon="5.89137">
        <ele>777.45</ele>
        <time>2021-07-03T09:45:42.000Z</time>
      </trkpt>
      <trkpt lat="45.21354" lon="5.89125">
        <ele>778.58</ele>
        <time>2021-07-03T09:45:47.000Z</time>
      </trkpt>
      <trkpt lat="45.21377" lon="5.89112">
        <ele>779.84</ele>
        <time>2021-07-03T09:45:52.000Z</time>
      </trkpt>
      <trkpt lat="45.21399" lon="5.89095">
        <ele>780.46</ele>
        <time>2021-07-03T09:45:57.000Z</time>
      </trkpt>
      <trkpt lat="45.21425" lon="5.89085">
        <ele>783.76</ele>
        <time>2021-07-03T09:46:02.000Z</time>
      </trkpt>
      <trkpt lat="45.21458" lon="5.89065">
        <ele>785.04</ele>
        <time>2021-07-03T09:46:07.000Z</time>
      </trkpt>
      <trkpt lat="45.21488" lon="5.89047">
        <ele>786.64</ele>
        <time>2021-07-03T09:46:12.000Z</time>
      </trkpt>
      <trkpt lat="45.21516" lon="5.89036">
        <ele>787.04</ele>
        <time>2021-07-03T09:46:17.000Z</time>
      </trkpt>
      <trkpt lat="45.21541" lon="5.89026">
        <ele>788.39</ele>
        <time>2021-07-03T09:46:22.000Z</time>
      </trkpt>
      <trkpt lat="45.21568" lon="5.89015">
        <ele>792.47</ele>
        <time>2021-07-03T09:46:27.000Z</time>
      </trkpt>
      <trkpt lat="45.21591" lon="5.88999">
        <ele>794.43</ele>
        <time>2021-07-03T09:46:32.000Z</time>
      </trkpt>
      <trkpt lat="45.21615" lon="5.88983">
        <ele>793.53</ele>
        <time>2021-07-03T09:46:37.000Z</time>
      </trkpt>
      <trkpt lat="45.21637" lon="5.88961">
        <ele>791.76</ele>
        <time>2021-07-03T09:46:42.000Z</time>
      </trkpt>
      <trkpt lat="45.2166" lon="5.88945">
        <ele>792.63</ele>
        <time>2021-07-03T09:46:47.000Z</time>
      </trkpt>
      <trkpt lat="45.21685" lon="5.88926">
        <ele>796.14</ele>
        <time>2021-07-03T09:46:52.000Z</time>
      </trkpt>
      <trkpt lat="45.21704" lon="5.88898">
        <ele>799.62</ele>
        <time>2021-07-03T09:46:57.000Z</time>
      </trkpt>
      <trkpt lat="45.21697" lon="5.8887">
        <ele>800.38</ele>
        <time>2021-07-03T09:47:02.000Z</time>
      </trkpt>
      <trkpt lat="45.21692" lon="5.88856">
        <ele>801.49</ele>
        <time>2021-07-03T09:47:07.000Z</time>
      </trkpt>
      <trkpt lat="45.2168" lon="5.88854">
        <ele>799.97</ele>
        <time>2021-07-03T09:48:27.000Z</time>
      </trkpt>
      <trkpt lat="45.21656" lon="5.88843">
        <ele>796.82</ele>
        <time>2021-07-03T09:48:32.000Z</time>
      </trkpt>
      <trkpt lat="45.21623" lon="5.88828">
        <ele>789.87</ele>
        <time>2021-07-03T09:48:37.000Z</time>
      </trkpt>
      <trkpt lat="45.21582" lon="5.88788">
        <ele>787.93</ele>
        <time>2021-07-03T09:48:42.000Z</time>
      </trkpt>
      <trkpt lat="45.21541" lon="5.88738">
        <ele>784.58</ele>
        <time>2021-07-03T09:48:47.000Z</time>
      </trkpt>
      <trkpt lat="45.21499" lon="5.88665">
        <ele>785.45</ele>
        <time>2021-07-03T09:48:52.000Z</time>
      </trkpt>
      <trkpt lat="45.21457" lon="5.88572">
        <ele>784.47</ele>
        <time>2021-07-03T09:48:57.000Z</time>
      </trkpt>
      <trkpt lat="45.21426" lon="5.88462">
        <ele>777.1</ele>
        <time>2021-07-03T09:49:02.000Z</time>
      </trkpt>
      <trkpt lat="45.21421" lon="5.88363">
        <ele>765.69</ele>
        <time>2021-07-03T09:49:07.000Z</time>
      </trkpt>
      <trkpt lat="45.21388" lon="5.88313">
        <ele>761.3</ele>
        <time>2021-07-03T09:49:12.000Z</time>
      </trkpt>
      <trkpt lat="45.2134" lon="5.88331">
        <ele>759.72</ele>
        <time>2021-07-03T09:49:17.000Z</time>
      </trkpt>
      <trkpt lat="45.21291" lon="5.88352">
        <ele>757.8</ele>
        <time>2021-07-03T09:49:22.000Z</time>
      </trkpt>
      <trkpt lat="45.21246" lon="5.88356">
        <ele>757.02</ele>
        <time>2021-07-03T09:49:27.000Z</time>
      </trkpt>
      <trkpt lat="45.21203" lon="5.88357">
        <ele>756.75</ele>
        <time>2021-07-03T09:49:32.000Z</time>
      </trkpt>
      <trkpt lat="45.21165" lon="5.88351">
        <ele>756.26</ele>
        <time>2021-07-03T09:49:37.000Z</time>
      </trkpt>
      <trkpt lat="45.2113" lon="5.88338">
        <ele>755.25</ele>
        <time>2021-07-03T09:49:42.000Z</time>
      </trkpt>
      <trkpt lat="45.21098" lon="5.88327">
        <ele>755.97</ele>
        <time>2021-07-03T09:49:47.000Z</time>
      </trkpt>
      <trkpt lat="45.2107" lon="5.8831">
        <ele>753.51</ele>
        <time>2021-07-03T09:49:52.000Z</time>
      </trkpt>
      <trkpt lat="45.21045" lon="5.8829">
        <ele>752.19</ele>
        <time>2021-07-03T09:49:57.000Z</time>
      </trkpt>
      <trkpt lat="45.21017" lon="5.88285">
        <ele>751.88</ele>
        <time>2021-07-03T09:50:02.000Z</time>
      </trkpt>
      <trkpt lat="45.20994" lon="5.88282">
        <ele>752.52</ele>
        <time>2021-07-03T09:50:07.000Z</time>
      </trkpt>
      <trkpt lat="45.20981" lon="5.8828">
        <ele>754.42</ele>
        <time>2021-07-03T09:50:12.000Z</time>
      </trkpt>
      <trkpt lat="45.2097" lon="5.8828">
        <ele>753.76</ele>
        <time>2021-07-03T09:50:17.000Z</time>
      </trkpt>
      <trkpt lat="45.2096" lon="5.88279">
        <ele>752.28</ele>
        <time>2021-07-03T09:50:22.000Z</time>
      </trkpt>
      <trkpt lat="45.20949" lon="5.88274">
        <ele>753.19</ele>
        <time>2021-07-03T09:50:27.000Z</time>
      </trkpt>
      <trkpt lat="45.20933" lon="5.88271">
        <ele>752.57</ele>
        <time>2021-07-03T09:50:32.000Z</time>
      </trkpt>
      <trkpt lat="45.2091" lon="5.88259">
        <ele>753.29</ele>
        <time>2021-07-03T09:50:37.000Z</time>
      </trkpt>
      <trkpt lat="45.20881" lon="5.88265">
        <ele>750.75</ele>
        <time>2021-07-03T09:50:42.000Z</time>
      </trkpt>
      <trkpt lat="45.20858" lon="5.88282">
        <ele>749.54</ele>
        <time>2021-07-03T09:50:47.000Z</time>
      </trkpt>
      <trkpt lat="45.2083" lon="5.8831">
        <ele>746.18</ele>
        <time>2021-07-03T09:50:52.000Z</time>
      </trkpt>
      <trkpt lat="45.20783" lon="5.8833">
        <ele>745.55</ele>
        <time>2021-07-03T09:50:57.000Z</time>
      </trkpt>
      <trkpt lat="45.20728" lon="5.8834">
        <ele>737.24</ele>
        <time>2021-07-03T09:51:02.000Z</time>
      </trkpt>
      <trkpt lat="45.20672" lon="5.88312">
        <ele>730.6</ele>
        <time>2021-07-03T09:51:07.000Z</time>
      </trkpt>
      <trkpt lat="45.20632" lon="5.88244">
        <ele>729.72</ele>
        <time>2021-07-03T09:51:12.000Z</time>
      </trkpt>
      <trkpt lat="45.20594" lon="5.88211">
        <ele>728.9</ele>
        <time>2021-07-03T09:51:17.000Z</time>
      </trkpt>
      <trkpt lat="45.20582" lon="5.88157">
        <ele>725.53</ele>
        <time>2021-07-03T09:51:22.000Z</time>
      </trkpt>
      <trkpt lat="45.2055" lon="5.88133">
        <ele>724.81</ele>
        <time>2021-07-03T09:51:27.000Z</time>
      </trkpt>
      <trkpt lat="45.20517" lon="5.88139">
        <ele>722.73</ele>
        <time>2021-07-03T09:51:32.000Z</time>
      </trkpt>
      <trkpt lat="45.20487" lon="5.88148">
        <ele>723.91</ele>
        <time>2021-07-03T09:51:37.000Z</time>
      </trkpt>
      <trkpt lat="45.20459" lon="5.88141">
        <ele>725.2</ele>
        <time>2021-07-03T09:51:42.000Z</time>
      </trkpt>
      <trkpt lat="45.20431" lon="5.8814">
        <ele>721.65</ele>
        <time>2021-07-03T09:51:47.000Z</time>
      </trkpt>
      <trkpt lat="45.20402" lon="5.88133">
        <ele>720.91</ele>
        <time>2021-07-03T09:51:52.000Z</time>
      </trkpt>
      <trkpt lat="45.20375" lon="5.88136">
        <ele>719.26</ele>
        <time>2021-07-03T09:51:57.000Z</time>
      </trkpt>
      <trkpt lat="45.20365" lon="5.8814">
        <ele>720.96</ele>
        <time>2021-07-03T09:52:23.000Z</time>
      </trkpt>
      <trkpt lat="45.20356" lon="5.88149">
        <ele>718.44</ele>
        <time>2021-07-03T09:52:29.000Z</time>
      </trkpt>
      <trkpt lat="45.2034" lon="5.88156">
        <ele>716.61</ele>
        <time>2021-07-03T09:52:34.000Z</time>
      </trkpt>
      <trkpt lat="45.20317" lon="5.88182">
        <ele>716.93</ele>
        <time>2021-07-03T09:52:39.000Z</time>
      </trkpt>
      <trkpt lat="45.20301" lon="5.88203">
        <ele>719.37</ele>
        <time>2021-07-03T09:52:44.000Z</time>
      </trkpt>
      <trkpt lat="45.20281" lon="5.88215">
        <ele>720.03</ele>
        <time>2021-07-03T09:52:49.000Z</time>
      </trkpt>
      <trkpt lat="45.20259" lon="5.88221">
        <ele>719.09</ele>
        <time>2021-07-03T09:52:54.000Z</time>
      </trkpt>
      <trkpt lat="45.20238" lon="5.88222">
        <ele>720.62</ele>
        <time>2021-07-03T09:52:59.000Z</time>
      </trkpt>
      <trkpt lat="45.20215" lon="5.88217">
        <ele>721.69</ele>
        <time>2021-07-03T09:53:04.000Z</time>
      </trkpt>
      <trkpt lat="45.20193" lon="5.882">
        <ele>721.86</ele>
        <time>2021-07-03T09:53:09.000Z</time>
      </trkpt>
      <trkpt lat="45.20173" lon="5.8818">
        <ele>721.68</ele>
        <time>2021-07-03T09:53:14.000Z</time>
      </trkpt>
      <trkpt lat="45.20161" lon="5.88155">
        <ele>725.97</ele>
        <time>2021-07-03T09:53:19.000Z</time>
      </trkpt>
      <trkpt lat="45.20155" lon="5.88127">
        <ele>729.3</ele>
        <time>2021-07-03T09:53:24.000Z</time>
      </trkpt>
      <trkpt lat="45.20155" lon="5.88097">
        <ele>730.78</ele>
        <time>2021-07-03T09:53:29.000Z</time>
      </trkpt>
      <trkpt lat="45.20157" lon="5.8807">
        <ele>731.23</ele>
        <time>2021-07-03T09:53:34.000Z</time>
      </trkpt>
      <trkpt lat="45.20159" lon="5.88044">
        <ele>733.07</ele>
        <time>2021-07-03T09:53:39.000Z</time>
      </trkpt>
      <trkpt lat="45.20157" lon="5.8801">
        <ele>732.5</ele>
        <time>2021-07-03T09:53:44.000Z</time>
      </trkpt>
      <trkpt lat="45.20148" lon="5.87978">
        <ele>731.1</ele>
        <time>2021-07-03T09:53:49.000Z</time>
      </trkpt>
      <trkpt lat="45.20139" lon="5.87943">
        <ele>732.95</ele>
        <time>2021-07-03T09:53:54.000Z</time>
      </trkpt>
      <trkpt lat="45.2013" lon="5.87912">
        <ele>733.5</ele>
        <time>2021-07-03T09:53:59.000Z</time>
      </trkpt>
      <trkpt lat="45.20122" lon="5.87873">
        <ele>736.19</ele>
        <time>2021-07-03T09:54:04.000Z</time>
      </trkpt>
      <trkpt lat="45.20119" lon="5.87842">
        <ele>741.27</ele>
        <time>2021-07-03T09:54:09.000Z</time>
      </trkpt>
      <trkpt lat="45.20119" lon="5.87813">
        <ele>747.1</ele>
        <time>2021-07-03T09:54:14.000Z</time>
      </trkpt>
      <trkpt lat="45.20119" lon="5.87784">
        <ele>749.48</ele>
        <time>2021-07-03T09:54:19.000Z</time>
      </trkpt>
      <trkpt lat="45.20128" lon="5.87752">
        <ele>754.29</ele>
        <time>2021-07-03T09:54:24.000Z</time>
      </trkpt>
      <trkpt lat="45.20133" lon="5.87724">
        <ele>753.06</ele>
        <time>2021-07-03T09:54:29.000Z</time>
      </trkpt>
      <trkpt lat="45.20136" lon="5.87689">
        <ele>754.55</ele>
        <time>2021-07-03T09:54:34.000Z</time>
      </trkpt>
      <trkpt lat="45.20136" lon="5.87662">
        <ele>758.47</ele>
        <time>2021-07-03T09:54:39.000Z</time>
      </trkpt>
      <trkpt lat="45.2013" lon="5.87625">
        <ele>761.73</ele>
        <time>2021-07-03T09:54:44.000Z</time>
      </trkpt>
      <trkpt lat="45.20119" lon="5.87597">
        <ele>762.67</ele>
        <time>2021-07-03T09:54:49.000Z</time>
      </trkpt>
      <trkpt lat="45.20111" lon="5.87562">
        <ele>763.83</ele>
        <time>2021-07-03T09:54:54.000Z</time>
      </trkpt>
      <trkpt lat="45.20104" lon="5.87521">
        <ele>762.33</ele>
        <time>2021-07-03T09:54:59.000Z</time>
      </trkpt>
      <trkpt lat="45.20104" lon="5.8749">
        <ele>765.38</ele>
        <time>2021-07-03T09:55:04.000Z</time>
      </trkpt>
      <trkpt lat="45.20116" lon="5.87462">
        <ele>769.2</ele>
        <time>2021-07-03T09:55:09.000Z</time>
      </trkpt>
      <trkpt lat="45.20126" lon="5.87439">
        <ele>769.26</ele>
        <time>2021-07-03T09:55:14.000Z</time>
      </trkpt>
      <trkpt lat="45.20143" lon="5.87418">
        <ele>769.59</ele>
        <time>2021-07-03T09:55:19.000Z</time>
      </trkpt>
      <trkpt lat="45.20148" lon="5.87388">
        <ele>770.53</ele>
        <time>2021-07-03T09:55:24.000Z</time>
      </trkpt>
      <trkpt lat="45.20143" lon="5.87356">
        <ele>771.8</ele>
        <time>2021-07-03T09:55:29.000Z</time>
      </trkpt>
      <trkpt lat="45.20139" lon="5.87325">
        <ele>770.28</ele>
        <time>2021-07-03T09:55:34.000Z</time>
      </trkpt>
      <trkpt lat="45.2013" lon="5.87293">
        <ele>774.49</ele>
        <time>2021-07-03T09:55:39.000Z</time>
      </trkpt>
      <trkpt lat="45.20123" lon="5.87264">
        <ele>781.62</ele>
        <time>2021-07-03T09:55:44.000Z</time>
      </trkpt>
      <trkpt lat="45.20111" lon="5.87235">
        <ele>783.6</ele>
        <time>2021-07-03T09:55:49.000Z</time>
      </trkpt>
      <trkpt lat="45.20101" lon="5.87207">
        <ele>788.19</ele>
        <time>2021-07-03T09:55:54.000Z</time>
      </trkpt>
      <trkpt lat="45.20086" lon="5.87184">
        <ele>789.53</ele>
        <time>2021-07-03T09:55:59.000Z</time>
      </trkpt>
      <trkpt lat="45.20073" lon="5.87155">
        <ele>793.38</ele>
        <time>2021-07-03T09:56:04.000Z</time>
      </trkpt>
      <trkpt lat="45.20063" lon="5.87125">
        <ele>792.94</ele>
        <time>2021-07-03T09:56:09.000Z</time>
      </trkpt>
      <trkpt lat="45.20054" lon="5.87091">
        <ele>794.6</ele>
        <time>2021-07-03T09:56:14.000Z</time>
      </trkpt>
      <trkpt lat="45.20059" lon="5.87058">
        <ele>797.91</ele>
        <time>2021-07-03T09:56:19.000Z</time>
      </trkpt>
      <trkpt lat="45.20067" lon="5.87027">
        <ele>797.74</ele>
        <time>2021-07-03T09:56:24.000Z</time>
      </trkpt>
      <trkpt lat="45.20074" lon="5.86993">
        <ele>798.28</ele>
        <time>2021-07-03T09:56:29.000Z</time>
      </trkpt>
      <trkpt lat="45.20074" lon="5.86959">
        <ele>799.81</ele>
        <time>2021-07-03T09:56:34.000Z</time>
      </trkpt>
      <trkpt lat="45.20082" lon="5.86933">
        <ele>801.53</ele>
        <time>2021-07-03T09:56:39.000Z</time>
      </trkpt>
      <trkpt lat="45.20084" lon="5.869">
        <ele>801.65</ele>
        <time>2021-07-03T09:56:44.000Z</time>
      </trkpt>
      <trkpt lat="45.20076" lon="5.86865">
        <ele>803.84</ele>
        <time>2021-07-03T09:56:49.000Z</time>
      </trkpt>
      <trkpt lat="45.20061" lon="5.8684">
        <ele>808.65</ele>
        <time>2021-07-03T09:56:54.000Z</time>
      </trkpt>
      <trkpt lat="45.20048" lon="5.86814">
        <ele>811.57</ele>
        <time>2021-07-03T09:56:59.000Z</time>
      </trkpt>
      <trkpt lat="45.20034" lon="5.86785">
        <ele>814.59</ele>
        <time>2021-07-03T09:57:04.000Z</time>
      </trkpt>
      <trkpt lat="45.2002" lon="5.86757">
        <ele>817.89</ele>
        <time>2021-07-03T09:57:09.000Z</time>
      </trkpt>
      <trkpt lat="45.20006" lon="5.86733">
        <ele>817.97</ele>
        <time>2021-07-03T09:57:14.000Z</time>
      </trkpt>
      <trkpt lat="45.19984" lon="5.8672">
        <ele>817.05</ele>
        <time>2021-07-03T09:57:19.000Z</time>
      </trkpt>
      <trkpt lat="45.19957" lon="5.86717">
        <ele>814.67</ele>
        <time>2021-07-03T09:57:24.000Z</time>
      </trkpt>
      <trkpt lat="45.19935" lon="5.86715">
        <ele>820.07</ele>
        <time>2021-07-03T09:57:29.000Z</time>
      </trkpt>
      <trkpt lat="45.19917" lon="5.86724">
        <ele>823.54</ele>
        <time>2021-07-03T09:57:34.000Z</time>
      </trkpt>
      <trkpt lat="45.19896" lon="5.86728">
        <ele>824.44</ele>
        <time>2021-07-03T09:57:39.000Z</time>
      </trkpt>
      <trkpt lat="45.19874" lon="5.86729">
        <ele>826.62</ele>
        <time>2021-07-03T09:57:44.000Z</time>
      </trkpt>
      <trkpt lat="45.19853" lon="5.86722">
        <ele>825.86</ele>
        <time>2021-07-03T09:57:49.000Z</time>
      </trkpt>
      <trkpt lat="45.19831" lon="5.86716">
        <ele>822.61</ele>
        <time>2021-07-03T09:57:54.000Z</time>
      </trkpt>
      <trkpt lat="45.19808" lon="5.86712">
        <ele>825.95</ele>
        <time>2021-07-03T09:57:59.000Z</time>
      </trkpt>
      <trkpt lat="45.19785" lon="5.86711">
        <ele>831.49</ele>
        <time>2021-07-03T09:58:04.000Z</time>
      </trkpt>
      <trkpt lat="45.19763" lon="5.8671">
        <ele>834.93</ele>
        <time>2021-07-03T09:58:09.000Z</time>
      </trkpt>
      <trkpt lat="45.19742" lon="5.86716">
        <ele>838.54</ele>
        <time>2021-07-03T09:58:14.000Z</time>
      </trkpt>
      <trkpt lat="45.19726" lon="5.86735">
        <ele>844.5</ele>
        <time>2021-07-03T09:58:19.000Z</time>
      </trkpt>
      <trkpt lat="45.19719" lon="5.86765">
        <ele>847.53</ele>
        <time>2021-07-03T09:58:24.000Z</time>
      </trkpt>
      <trkpt lat="45.19722" lon="5.86792">
        <ele>843.01</ele>
        <time>2021-07-03T09:58:29.000Z</time>
      </trkpt>
      <trkpt lat="45.19716" lon="5.86823">
        <ele>845.25</ele>
        <time>2021-07-03T09:58:34.000Z</time>
      </trkpt>
      <trkpt lat="45.19699" lon="5.86848">
        <ele>846.54</ele>
        <time>2021-07-03T09:58:39.000Z</time>
      </trkpt>
      <trkpt lat="45.19675" lon="5.86851">
        <ele>848.35</ele>
        <time>2021-07-03T09:58:44.000Z</time>
      </trkpt>
      <trkpt lat="45.19648" lon="5.86852">
        <ele>851.77</ele>
        <time>2021-07-03T09:58:49.000Z</time>
      </trkpt>
      <trkpt lat="45.19622" lon="5.8686">
        <ele>853.3</ele>
        <time>2021-07-03T09:58:54.000Z</time>
      </trkpt>
      <trkpt lat="45.19594" lon="5.86862">
        <ele>856.8</ele>
        <time>2021-07-03T09:58:59.000Z</time>
      </trkpt>
      <trkpt lat="45.19567" lon="5.86865">
        <ele>862.74</ele>
        <time>2021-07-03T09:59:04.000Z</time>
      </trkpt>
      <trkpt lat="45.19543" lon="5.86873">
        <ele>864.47</ele>
        <time>2021-07-03T09:59:09.000Z</time>
      </trkpt>
      <trkpt lat="45.1953" lon="5.86895">
        <ele>868.49</ele>
        <time>2021-07-03T09:59:14.000Z</time>
      </trkpt>
      <trkpt lat="45.19528" lon="5.86923">
        <ele>869.56</ele>
        <time>2021-07-03T09:59:19.000Z</time>
      </trkpt>
      <trkpt lat="45.19533" lon="5.86955">
        <ele>870.73</ele>
        <time>2021-07-03T09:59:24.000Z</time>
      </trkpt>
      <trkpt lat="45.19539" lon="5.86988">
        <ele>872.96</ele>
        <time>2021-07-03T09:59:29.000Z</time>
      </trkpt>
      <trkpt lat="45.19553" lon="5.87028">
        <ele>871.57</ele>
        <time>2021-07-03T09:59:34.000Z</time>
      </trkpt>
      <trkpt lat="45.19569" lon="5.87054">
        <ele>876.06</ele>
        <time>2021-07-03T09:59:39.000Z</time>
      </trkpt>
      <trkpt lat="45.19584" lon="5.87083">
        <ele>880.26</ele>
        <time>2021-07-03T09:59:44.000Z</time>
      </trkpt>
      <trkpt lat="45.19607" lon="5.87119">
        <ele>880.74</ele>
        <time>2021-07-03T09:59:49.000Z</time>
      </trkpt>
      <trkpt lat="45.1963" lon="5.87152">
        <ele>878.64</ele>
        <time>2021-07-03T09:59:54.000Z</time>
      </trkpt>
      <trkpt lat="45.19651" lon="5.87186">
        <ele>878.78</ele>
        <time>2021-07-03T09:59:59.000Z</time>
      </trkpt>
      <trkpt lat="45.19672" lon="5.87226">
        <ele>875.5</ele>
        <time>2021-07-03T10:00:04.000Z</time>
      </trkpt>
      <trkpt lat="45.1968" lon="5.87271">
        <ele>871.32</ele>
        <time>2021-07-03T10:00:09.000Z</time>
      </trkpt>
      <trkpt lat="45.19682" lon="5.87321">
        <ele>871.95</ele>
        <time>2021-07-03T10:00:14.000Z</time>
      </trkpt>
      <trkpt lat="45.19686" lon="5.87363">
        <ele>866.26</ele>
        <time>2021-07-03T10:00:19.000Z</time>
      </trkpt>
      <trkpt lat="45.1969" lon="5.87408">
        <ele>865.25</ele>
        <time>2021-07-03T10:00:24.000Z</time>
      </trkpt>
      <trkpt lat="45.19691" lon="5.87449">
        <ele>862.86</ele>
        <time>2021-07-03T10:00:29.000Z</time>
      </trkpt>
      <trkpt lat="45.19681" lon="5.87485">
        <ele>862.97</ele>
        <time>2021-07-03T10:00:34.000Z</time>
      </trkpt>
      <trkpt lat="45.19666" lon="5.87516">
        <ele>862.67</ele>
        <time>2021-07-03T10:00:39.000Z</time>
      </trkpt>
      <trkpt lat="45.19642" lon="5.87544">
        <ele>870.43</ele>
        <time>2021-07-03T10:00:44.000Z</time>
      </trkpt>
      <trkpt lat="45.19624" lon="5.87571">
        <ele>876.98</ele>
        <time>2021-07-03T10:00:49.000Z</time>
      </trkpt>
      <trkpt lat="45.19607" lon="5.87592">
        <ele>880.23</ele>
        <time>2021-07-03T10:00:54.000Z</time>
      </trkpt>
      <trkpt lat="45.19587" lon="5.87616">
        <ele>882.36</ele>
        <time>2021-07-03T10:00:59.000Z</time>
      </trkpt>
      <trkpt lat="45.19569" lon="5.87641">
        <ele>882.45</ele>
        <time>2021-07-03T10:01:04.000Z</time>
      </trkpt>
      <trkpt lat="45.19543" lon="5.87658">
        <ele>884.29</ele>
        <time>2021-07-03T10:01:09.000Z</time>
      </trkpt>
      <trkpt lat="45.19515" lon="5.87666">
        <ele>883.39</ele>
        <time>2021-07-03T10:01:14.000Z</time>
      </trkpt>
      <trkpt lat="45.19489" lon="5.87673">
        <ele>880.27</ele>
        <time>2021-07-03T10:01:19.000Z</time>
      </trkpt>
      <trkpt lat="45.19458" lon="5.87671">
        <ele>885.19</ele>
        <time>2021-07-03T10:01:24.000Z</time>
      </trkpt>
      <trkpt lat="45.19428" lon="5.87666">
        <ele>886.46</ele>
        <time>2021-07-03T10:01:29.000Z</time>
      </trkpt>
      <trkpt lat="45.19402" lon="5.87664">
        <ele>888.51</ele>
        <time>2021-07-03T10:01:34.000Z</time>
      </trkpt>
      <trkpt lat="45.19376" lon="5.8767">
        <ele>889.99</ele>
        <time>2021-07-03T10:01:39.000Z</time>
      </trkpt>
      <trkpt lat="45.19359" lon="5.877">
        <ele>891.35</ele>
        <time>2021-07-03T10:01:44.000Z</time>
      </trkpt>
      <trkpt lat="45.19352" lon="5.87737">
        <ele>889.51</ele>
        <time>2021-07-03T10:01:49.000Z</time>
      </trkpt>
      <trkpt lat="45.19349" lon="5.87773">
        <ele>888.67</ele>
        <time>2021-07-03T10:01:54.000Z</time>
      </trkpt>
      <trkpt lat="45.1935" lon="5.87814">
        <ele>887.09</ele>
        <time>2021-07-03T10:01:59.000Z</time>
      </trkpt>
      <trkpt lat="45.19348" lon="5.87855">
        <ele>887.14</ele>
        <time>2021-07-03T10:02:04.000Z</time>
      </trkpt>
      <trkpt lat="45.19353" lon="5.87901">
        <ele>887.8</ele>
        <time>2021-07-03T10:02:09.000Z</time>
      </trkpt>
      <trkpt lat="45.19372" lon="5.87946">
        <ele>890.52</ele>
        <time>2021-07-03T10:02:14.000Z</time>
      </trkpt>
      <trkpt lat="45.19396" lon="5.8799">
        <ele>887.07</ele>
        <time>2021-07-03T10:02:19.000Z</time>
      </trkpt>
      <trkpt lat="45.19426" lon="5.8804">
        <ele>883.34</ele>
        <time>2021-07-03T10:02:24.000Z</time>
      </trkpt>
      <trkpt lat="45.19432" lon="5.88109">
        <ele>879.47</ele>
        <time>2021-07-03T10:02:29.000Z</time>
      </trkpt>
      <trkpt lat="45.19426" lon="5.88163">
        <ele>872.87</ele>
        <time>2021-07-03T10:02:34.000Z</time>
      </trkpt>
      <trkpt lat="45.19413" lon="5.88193">
        <ele>869.5</ele>
        <time>2021-07-03T10:02:39.000Z</time>
      </trkpt>
      <trkpt lat="45.19401" lon="5.88203">
        <ele>869.26</ele>
        <time>2021-07-03T10:02:44.000Z</time>
      </trkpt>
      <trkpt lat="45.19395" lon="5.88215">
        <ele>863.73</ele>
        <time>2021-07-03T10:02:49.000Z</time>
      </trkpt>
      <trkpt lat="45.19396" lon="5.88238">
        <ele>861.73</ele>
        <time>2021-07-03T10:02:54.000Z</time>
      </trkpt>
      <trkpt lat="45.194" lon="5.8827">
        <ele>863.4</ele>
        <time>2021-07-03T10:02:59.000Z</time>
      </trkpt>
      <trkpt lat="45.19386" lon="5.88311">
        <ele>862.73</ele>
        <time>2021-07-03T10:03:04.000Z</time>
      </trkpt>
      <trkpt lat="45.19374" lon="5.88373">
        <ele>867.53</ele>
        <time>2021-07-03T10:03:09.000Z</time>
      </trkpt>
      <trkpt lat="45.19334" lon="5.88434">
        <ele>866.01</ele>
        <time>2021-07-03T10:03:14.000Z</time>
      </trkpt>
      <trkpt lat="45.19264" lon="5.88447">
        <ele>862.47</ele>
        <time>2021-07-03T10:03:19.000Z</time>
      </trkpt>
      <trkpt lat="45.19192" lon="5.88464">
        <ele>859.55</ele>
        <time>2021-07-03T10:03:24.000Z</time>
      </trkpt>
      <trkpt lat="45.19115" lon="5.8845">
        <ele>853.89</ele>
        <time>2021-07-03T10:03:29.000Z</time>
      </trkpt>
      <trkpt lat="45.19032" lon="5.88448">
        <ele>851.14</ele>
        <time>2021-07-03T10:03:34.000Z</time>
      </trkpt>
      <trkpt lat="45.18949" lon="5.88465">
        <ele>840.02</ele>
        <time>2021-07-03T10:03:39.000Z</time>
      </trkpt>
      <trkpt lat="45.18872" lon="5.88477">
        <ele>837.48</ele>
        <time>2021-07-03T10:03:44.000Z</time>
      </trkpt>
      <trkpt lat="45.18808" lon="5.88451">
        <ele>837.04</ele>
        <time>2021-07-03T10:03:49.000Z</time>
      </trkpt>
      <trkpt lat="45.1877" lon="5.88377">
        <ele>838.82</ele>
        <time>2021-07-03T10:03:54.000Z</time>
      </trkpt>
      <trkpt lat="45.18736" lon="5.88318">
        <ele>834.21</ele>
        <time>2021-07-03T10:03:59.000Z</time>
      </trkpt>
      <trkpt lat="45.18714" lon="5.88264">
        <ele>831.95</ele>
        <time>2021-07-03T10:04:04.000Z</time>
      </trkpt>
      <trkpt lat="45.1871" lon="5.88199">
        <ele>824.76</ele>
        <time>2021-07-03T10:04:09.000Z</time>
      </trkpt>
      <trkpt lat="45.18719" lon="5.88127">
        <ele>818.36</ele>
        <time>2021-07-03T10:04:14.000Z</time>
      </trkpt>
      <trkpt lat="45.18715" lon="5.88052">
        <ele>816.52</ele>
        <time>2021-07-03T10:04:19.000Z</time>
      </trkpt>
      <trkpt lat="45.18692" lon="5.87965">
        <ele>816.45</ele>
        <time>2021-07-03T10:04:24.000Z</time>
      </trkpt>
      <trkpt lat="45.18636" lon="5.87887">
        <ele>809.83</ele>
        <time>2021-07-03T10:04:29.000Z</time>
      </trkpt>
      <trkpt lat="45.18562" lon="5.87836">
        <ele>803.06</ele>
        <time>2021-07-03T10:04:34.000Z</time>
      </trkpt>
      <trkpt lat="45.18483" lon="5.87795">
        <ele>789.25</ele>
        <time>2021-07-03T10:04:39.000Z</time>
      </trkpt>
      <trkpt lat="45.18406" lon="5.87816">
        <ele>785.15</ele>
        <time>2021-07-03T10:04:44.000Z</time>
      </trkpt>
      <trkpt lat="45.18338" lon="5.87889">
        <ele>775.92</ele>
        <time>2021-07-03T10:04:49.000Z</time>
      </trkpt>
      <trkpt lat="45.1828" lon="5.87966">
        <ele>767.74</ele>
        <time>2021-07-03T10:04:54.000Z</time>
      </trkpt>
      <trkpt lat="45.18252" lon="5.88016">
        <ele>756.38</ele>
        <time>2021-07-03T10:04:59.000Z</time>
      </trkpt>
      <trkpt lat="45.18247" lon="5.88002">
        <ele>755.09</ele>
        <time>2021-07-03T10:05:04.000Z</time>
      </trkpt>
      <trkpt lat="45.18253" lon="5.87991">
        <ele>748.36</ele>
        <time>2021-07-03T10:05:19.000Z</time>
      </trkpt>
      <trkpt lat="45.18263" lon="5.8795">
        <ele>744.71</ele>
        <time>2021-07-03T10:05:24.000Z</time>
      </trkpt>
      <trkpt lat="45.18258" lon="5.87889">
        <ele>740.85</ele>
        <time>2021-07-03T10:05:29.000Z</time>
      </trkpt>
      <trkpt lat="45.1827" lon="5.8782">
        <ele>737.82</ele>
        <time>2021-07-03T10:05:34.000Z</time>
      </trkpt>
      <trkpt lat="45.18284" lon="5.87749">
        <ele>730.82</ele>
        <time>2021-07-03T10:05:39.000Z</time>
      </trkpt>
      <trkpt lat="45.18294" lon="5.877">
        <ele>723.61</ele>
        <time>2021-07-03T10:05:44.000Z</time>
      </trkpt>
      <trkpt lat="45.18295" lon="5.87683">
        <ele>721.57</ele>
        <time>2021-07-03T10:05:49.000Z</time>
      </trkpt>
      <trkpt lat="45.183" lon="5.8766">
        <ele>718.47</ele>
        <time>2021-07-03T10:05:54.000Z</time>
      </trkpt>
      <trkpt lat="45.18306" lon="5.87634">
        <ele>715.12</ele>
        <time>2021-07-03T10:05:59.000Z</time>
      </trkpt>
      <trkpt lat="45.18312" lon="5.87616">
        <ele>711.76</ele>
        <time>2021-07-03T10:06:04.000Z</time>
      </trkpt>
      <trkpt lat="45.18318" lon="5.87601">
        <ele>710.4</ele>
        <time>2021-07-03T10:06:09.000Z</time>
      </trkpt>
      <trkpt lat="45.18326" lon="5.8758">
        <ele>705.99</ele>
        <time>2021-07-03T10:06:14.000Z</time>
      </trkpt>
      <trkpt lat="45.18334" lon="5.87551">
        <ele>702.27</ele>
        <time>2021-07-03T10:06:19.000Z</time>
      </trkpt>
      <trkpt lat="45.1834" lon="5.87526">
        <ele>698.28</ele>
        <time>2021-07-03T10:06:24.000Z</time>
      </trkpt>
      <trkpt lat="45.18349" lon="5.87505">
        <ele>696.46</ele>
        <time>2021-07-03T10:06:29.000Z</time>
      </trkpt>
      <trkpt lat="45.18354" lon="5.87485">
        <ele>696.65</ele>
        <time>2021-07-03T10:06:34.000Z</time>
      </trkpt>
      <trkpt lat="45.18366" lon="5.87457">
        <ele>695.69</ele>
        <time>2021-07-03T10:06:39.000Z</time>
      </trkpt>
      <trkpt lat="45.18373" lon="5.87431">
        <ele>691.85</ele>
        <time>2021-07-03T10:06:44.000Z</time>
      </trkpt>
      <trkpt lat="45.18381" lon="5.87404">
        <ele>689.34</ele>
        <time>2021-07-03T10:06:49.000Z</time>
      </trkpt>
      <trkpt lat="45.18382" lon="5.87387">
        <ele>686.61</ele>
        <time>2021-07-03T10:06:54.000Z</time>
      </trkpt>
      <trkpt lat="45.18379" lon="5.87383">
        <ele>689.32</ele>
        <time>2021-07-03T10:07:38.000Z</time>
      </trkpt>
    </trkseg>
  </trk>
</gpx>